<?xml version="1.0" encoding="UTF-8" standalone="no" ?>
<gpx xmlns="http://www.topografix.com/GPX/1/1" xmlns:xsi="http://www.w3.org/2001/XMLSchema-instance" xsi:schemaLocation="http://www.topografix.com/GPX/1/1 http://www.topografix.com/GPX/1/1/gpx.xsd" version="1.1" creator="VisuGPX - https://www.visugpx.com">
  <metadata>
    <name>Albon d'Ardèche 17 km</name>
  </metadata>
  <trk>
    <name><![CDATA[Albon d'Ardèche 17 km_1]]></name>
    <extensions>
      <line xmlns="http://www.topografix.com/GPX/gpx_style/0/2">
        <color>0000FF</color>
        <width>4</width>
      </line>
    </extensions>
    <trkseg>
      <trkpt lat="44.82106" lon="4.42823">
        <ele>637</ele>
        <time>2014-11-13T09:54:50Z</time>
        <extensions>
          <visugpx:TrkExtension xmlns:visugpx="https://www.visugpx.com/editgpx/">
            <visugpx:node>13</visugpx:node>
            </visugpx:TrkExtension>
        </extensions>
      </trkpt>
      <trkpt lat="44.821" lon="4.4283">
        <ele>637</ele>
        <time>2014-11-13T09:55:00Z</time>
      </trkpt>
      <trkpt lat="44.82091" lon="4.42845">
        <ele>635</ele>
        <time>2014-11-13T09:55:15Z</time>
      </trkpt>
      <trkpt lat="44.82097" lon="4.42872">
        <ele>635</ele>
        <time>2014-11-13T09:55:35Z</time>
      </trkpt>
      <trkpt lat="44.82102" lon="4.42901">
        <ele>634</ele>
        <time>2014-11-13T09:55:50Z</time>
      </trkpt>
      <trkpt lat="44.82103" lon="4.42937">
        <ele>631</ele>
        <time>2014-11-13T09:56:10Z</time>
      </trkpt>
      <trkpt lat="44.82105" lon="4.4297">
        <ele>631</ele>
        <time>2014-11-13T09:56:30Z</time>
      </trkpt>
      <trkpt lat="44.82113" lon="4.42997">
        <ele>632</ele>
        <time>2014-11-13T09:56:45Z</time>
      </trkpt>
      <trkpt lat="44.82123" lon="4.43027">
        <ele>638</ele>
        <time>2014-11-13T09:57:05Z</time>
      </trkpt>
      <trkpt lat="44.82132" lon="4.4304">
        <ele>631</ele>
        <time>2014-11-13T09:57:20Z</time>
      </trkpt>
      <trkpt lat="44.82151" lon="4.43056">
        <ele>642</ele>
        <time>2014-11-13T09:57:40Z</time>
      </trkpt>
      <trkpt lat="44.82171" lon="4.4305">
        <ele>637</ele>
        <time>2014-11-13T09:57:55Z</time>
      </trkpt>
      <trkpt lat="44.82199" lon="4.43058">
        <ele>631</ele>
        <time>2014-11-13T09:58:15Z</time>
      </trkpt>
      <trkpt lat="44.82218" lon="4.4307">
        <ele>635</ele>
        <time>2014-11-13T09:58:30Z</time>
      </trkpt>
      <trkpt lat="44.82239" lon="4.43086">
        <ele>628</ele>
        <time>2014-11-13T09:58:50Z</time>
      </trkpt>
      <trkpt lat="44.82248" lon="4.43096">
        <ele>628</ele>
        <time>2014-11-13T09:59:10Z</time>
      </trkpt>
      <trkpt lat="44.82259" lon="4.43127">
        <ele>633</ele>
        <time>2014-11-13T09:59:30Z</time>
      </trkpt>
      <trkpt lat="44.82253" lon="4.43155">
        <ele>635</ele>
        <time>2014-11-13T09:59:50Z</time>
      </trkpt>
      <trkpt lat="44.82248" lon="4.43169">
        <ele>635</ele>
        <time>2014-11-13T10:00:05Z</time>
      </trkpt>
      <trkpt lat="44.82234" lon="4.43188">
        <ele>651</ele>
        <time>2014-11-13T10:00:25Z</time>
      </trkpt>
      <trkpt lat="44.82227" lon="4.432">
        <ele>651</ele>
        <time>2014-11-13T10:00:40Z</time>
      </trkpt>
      <trkpt lat="44.82216" lon="4.43216">
        <ele>646</ele>
        <time>2014-11-13T10:01:00Z</time>
      </trkpt>
      <trkpt lat="44.82206" lon="4.4323">
        <ele>661</ele>
        <time>2014-11-13T10:01:15Z</time>
      </trkpt>
      <trkpt lat="44.82197" lon="4.43251">
        <ele>658</ele>
        <time>2014-11-13T10:01:35Z</time>
      </trkpt>
      <trkpt lat="44.82189" lon="4.43261">
        <ele>658</ele>
        <time>2014-11-13T10:01:50Z</time>
      </trkpt>
      <trkpt lat="44.82176" lon="4.43277">
        <ele>665</ele>
        <time>2014-11-13T10:02:10Z</time>
      </trkpt>
      <trkpt lat="44.82157" lon="4.43291">
        <ele>665</ele>
        <time>2014-11-13T10:02:25Z</time>
      </trkpt>
      <trkpt lat="44.82139" lon="4.43303">
        <ele>668</ele>
        <time>2014-11-13T10:02:45Z</time>
      </trkpt>
      <trkpt lat="44.82127" lon="4.43308">
        <ele>668</ele>
        <time>2014-11-13T10:03:05Z</time>
      </trkpt>
      <trkpt lat="44.82121" lon="4.43316">
        <ele>680</ele>
        <time>2014-11-13T10:03:20Z</time>
      </trkpt>
      <trkpt lat="44.82118" lon="4.43332">
        <ele>679</ele>
        <time>2014-11-13T10:03:50Z</time>
      </trkpt>
      <trkpt lat="44.82114" lon="4.43349">
        <ele>678</ele>
        <time>2014-11-13T10:04:05Z</time>
      </trkpt>
      <trkpt lat="44.82105" lon="4.43348">
        <ele>678</ele>
        <time>2014-11-13T10:04:30Z</time>
      </trkpt>
      <trkpt lat="44.82099" lon="4.43347">
        <ele>679</ele>
        <time>2014-11-13T10:04:45Z</time>
      </trkpt>
      <trkpt lat="44.82098" lon="4.43368">
        <ele>678</ele>
        <time>2014-11-13T10:05:05Z</time>
      </trkpt>
      <trkpt lat="44.82092" lon="4.43385">
        <ele>687</ele>
        <time>2014-11-13T10:05:20Z</time>
      </trkpt>
      <trkpt lat="44.82078" lon="4.43391">
        <ele>687</ele>
        <time>2014-11-13T10:05:40Z</time>
      </trkpt>
      <trkpt lat="44.82081" lon="4.43399">
        <ele>687</ele>
        <time>2014-11-13T10:05:55Z</time>
      </trkpt>
      <trkpt lat="44.82087" lon="4.43424">
        <ele>686</ele>
        <time>2014-11-13T10:06:15Z</time>
      </trkpt>
      <trkpt lat="44.82075" lon="4.43436">
        <ele>684</ele>
        <time>2014-11-13T10:06:35Z</time>
      </trkpt>
      <trkpt lat="44.8206" lon="4.4344">
        <ele>691</ele>
        <time>2014-11-13T10:06:50Z</time>
      </trkpt>
      <trkpt lat="44.82041" lon="4.4344">
        <ele>699</ele>
        <time>2014-11-13T10:07:10Z</time>
      </trkpt>
      <trkpt lat="44.82035" lon="4.43447">
        <ele>699</ele>
        <time>2014-11-13T10:07:25Z</time>
      </trkpt>
      <trkpt lat="44.82031" lon="4.43463">
        <ele>698</ele>
        <time>2014-11-13T10:07:45Z</time>
      </trkpt>
      <trkpt lat="44.82023" lon="4.43472">
        <ele>698</ele>
        <time>2014-11-13T10:08:00Z</time>
      </trkpt>
      <trkpt lat="44.82015" lon="4.43488">
        <ele>699</ele>
        <time>2014-11-13T10:08:20Z</time>
      </trkpt>
      <trkpt lat="44.82009" lon="4.43496">
        <ele>706</ele>
        <time>2014-11-13T10:08:35Z</time>
      </trkpt>
      <trkpt lat="44.81992" lon="4.43497">
        <ele>706</ele>
        <time>2014-11-13T10:08:55Z</time>
      </trkpt>
      <trkpt lat="44.81983" lon="4.43502">
        <ele>714</ele>
        <time>2014-11-13T10:09:10Z</time>
      </trkpt>
      <trkpt lat="44.81972" lon="4.43516">
        <ele>708</ele>
        <time>2014-11-13T10:09:30Z</time>
      </trkpt>
      <trkpt lat="44.81959" lon="4.43524">
        <ele>708</ele>
        <time>2014-11-13T10:09:50Z</time>
      </trkpt>
      <trkpt lat="44.81952" lon="4.43519">
        <ele>718</ele>
        <time>2014-11-13T10:10:05Z</time>
      </trkpt>
      <trkpt lat="44.81954" lon="4.43519">
        <ele>718</ele>
        <time>2014-11-13T10:10:30Z</time>
      </trkpt>
      <trkpt lat="44.8195" lon="4.4353">
        <ele>718</ele>
        <time>2014-11-13T10:10:45Z</time>
      </trkpt>
      <trkpt lat="44.81933" lon="4.43553">
        <ele>710</ele>
        <time>2014-11-13T10:11:05Z</time>
      </trkpt>
      <trkpt lat="44.81924" lon="4.43569">
        <ele>721</ele>
        <time>2014-11-13T10:11:20Z</time>
      </trkpt>
      <trkpt lat="44.81923" lon="4.43598">
        <ele>720</ele>
        <time>2014-11-13T10:11:40Z</time>
      </trkpt>
      <trkpt lat="44.81929" lon="4.43619">
        <ele>720</ele>
        <time>2014-11-13T10:11:55Z</time>
      </trkpt>
      <trkpt lat="44.81934" lon="4.43651">
        <ele>711</ele>
        <time>2014-11-13T10:12:15Z</time>
      </trkpt>
      <trkpt lat="44.81943" lon="4.43673">
        <ele>712</ele>
        <time>2014-11-13T10:12:30Z</time>
      </trkpt>
      <trkpt lat="44.81952" lon="4.43706">
        <ele>715</ele>
        <time>2014-11-13T10:12:50Z</time>
      </trkpt>
      <trkpt lat="44.81965" lon="4.43739">
        <ele>714</ele>
        <time>2014-11-13T10:13:10Z</time>
      </trkpt>
      <trkpt lat="44.81964" lon="4.43765">
        <ele>715</ele>
        <time>2014-11-13T10:13:25Z</time>
      </trkpt>
      <trkpt lat="44.8195" lon="4.43758">
        <ele>718</ele>
        <time>2014-11-13T10:13:45Z</time>
      </trkpt>
      <trkpt lat="44.81938" lon="4.43745">
        <ele>718</ele>
        <time>2014-11-13T10:14:00Z</time>
      </trkpt>
      <trkpt lat="44.81926" lon="4.4374">
        <ele>724</ele>
        <time>2014-11-13T10:14:20Z</time>
      </trkpt>
      <trkpt lat="44.81917" lon="4.43732">
        <ele>723</ele>
        <time>2014-11-13T10:14:35Z</time>
      </trkpt>
      <trkpt lat="44.81905" lon="4.43721">
        <ele>723</ele>
        <time>2014-11-13T10:14:55Z</time>
      </trkpt>
      <trkpt lat="44.81896" lon="4.43712">
        <ele>731</ele>
        <time>2014-11-13T10:15:10Z</time>
      </trkpt>
      <trkpt lat="44.81882" lon="4.43699">
        <ele>732</ele>
        <time>2014-11-13T10:15:30Z</time>
      </trkpt>
      <trkpt lat="44.81873" lon="4.43693">
        <ele>740</ele>
        <time>2014-11-13T10:15:45Z</time>
      </trkpt>
      <trkpt lat="44.81863" lon="4.43682">
        <ele>740</ele>
        <time>2014-11-13T10:16:05Z</time>
      </trkpt>
      <trkpt lat="44.81852" lon="4.4367">
        <ele>742</ele>
        <time>2014-11-13T10:16:25Z</time>
      </trkpt>
      <trkpt lat="44.81842" lon="4.43667">
        <ele>749</ele>
        <time>2014-11-13T10:16:40Z</time>
      </trkpt>
      <trkpt lat="44.81833" lon="4.43673">
        <ele>749</ele>
        <time>2014-11-13T10:17:05Z</time>
      </trkpt>
      <trkpt lat="44.81817" lon="4.43685">
        <ele>753</ele>
        <time>2014-11-13T10:17:20Z</time>
      </trkpt>
      <trkpt lat="44.8181" lon="4.43686">
        <ele>753</ele>
        <time>2014-11-13T10:17:40Z</time>
      </trkpt>
      <trkpt lat="44.81816" lon="4.43682">
        <ele>753</ele>
        <time>2014-11-13T10:17:55Z</time>
      </trkpt>
      <trkpt lat="44.8181" lon="4.43688">
        <ele>753</ele>
        <time>2014-11-13T10:18:15Z</time>
      </trkpt>
      <trkpt lat="44.81795" lon="4.43692">
        <ele>753</ele>
        <time>2014-11-13T10:18:30Z</time>
      </trkpt>
      <trkpt lat="44.81783" lon="4.4369">
        <ele>758</ele>
        <time>2014-11-13T10:18:50Z</time>
      </trkpt>
      <trkpt lat="44.81772" lon="4.43694">
        <ele>758</ele>
        <time>2014-11-13T10:19:05Z</time>
      </trkpt>
      <trkpt lat="44.81759" lon="4.43691">
        <ele>763</ele>
        <time>2014-11-13T10:19:25Z</time>
      </trkpt>
      <trkpt lat="44.81747" lon="4.43682">
        <ele>763</ele>
        <time>2014-11-13T10:19:45Z</time>
      </trkpt>
      <trkpt lat="44.81743" lon="4.43679">
        <ele>764</ele>
        <time>2014-11-13T10:20:05Z</time>
      </trkpt>
      <trkpt lat="44.81741" lon="4.43679">
        <ele>764</ele>
        <time>2014-11-13T10:20:30Z</time>
      </trkpt>
      <trkpt lat="44.81746" lon="4.43683">
        <ele>763</ele>
        <time>2014-11-13T10:21:15Z</time>
      </trkpt>
      <trkpt lat="44.81747" lon="4.43681">
        <ele>763</ele>
        <time>2014-11-13T10:21:35Z</time>
      </trkpt>
      <trkpt lat="44.81743" lon="4.43681">
        <ele>763</ele>
        <time>2014-11-13T10:21:55Z</time>
      </trkpt>
      <trkpt lat="44.81737" lon="4.43685">
        <ele>763</ele>
        <time>2014-11-13T10:22:10Z</time>
      </trkpt>
      <trkpt lat="44.81733" lon="4.43693">
        <ele>771</ele>
        <time>2014-11-13T10:22:30Z</time>
      </trkpt>
      <trkpt lat="44.8173" lon="4.43698">
        <ele>771</ele>
        <time>2014-11-13T10:22:45Z</time>
      </trkpt>
      <trkpt lat="44.81734" lon="4.43706">
        <ele>771</ele>
        <time>2014-11-13T10:23:05Z</time>
      </trkpt>
      <trkpt lat="44.81732" lon="4.43706">
        <ele>771</ele>
        <time>2014-11-13T10:23:25Z</time>
      </trkpt>
      <trkpt lat="44.81737" lon="4.43719">
        <ele>762</ele>
        <time>2014-11-13T10:23:40Z</time>
      </trkpt>
      <trkpt lat="44.8174" lon="4.43737">
        <ele>764</ele>
        <time>2014-11-13T10:24:00Z</time>
      </trkpt>
      <trkpt lat="44.81736" lon="4.43739">
        <ele>775</ele>
        <time>2014-11-13T10:24:20Z</time>
      </trkpt>
      <trkpt lat="44.81729" lon="4.43738">
        <ele>775</ele>
        <time>2014-11-13T10:24:40Z</time>
      </trkpt>
      <trkpt lat="44.81734" lon="4.43739">
        <ele>775</ele>
        <time>2014-11-13T10:25:00Z</time>
      </trkpt>
      <trkpt lat="44.81736" lon="4.43738">
        <ele>775</ele>
        <time>2014-11-13T10:25:25Z</time>
      </trkpt>
      <trkpt lat="44.81735" lon="4.43734">
        <ele>773</ele>
        <time>2014-11-13T10:25:40Z</time>
      </trkpt>
      <trkpt lat="44.81734" lon="4.43743">
        <ele>775</ele>
        <time>2014-11-13T10:26:00Z</time>
      </trkpt>
      <trkpt lat="44.81734" lon="4.43736">
        <ele>773</ele>
        <time>2014-11-13T10:26:45Z</time>
      </trkpt>
      <trkpt lat="44.81721" lon="4.4371">
        <ele>773</ele>
        <time>2014-11-13T10:27:05Z</time>
      </trkpt>
      <trkpt lat="44.81716" lon="4.43705">
        <ele>771</ele>
        <time>2014-11-13T10:27:25Z</time>
      </trkpt>
      <trkpt lat="44.81714" lon="4.43703">
        <ele>771</ele>
        <time>2014-11-13T10:27:40Z</time>
      </trkpt>
      <trkpt lat="44.81712" lon="4.437">
        <ele>771</ele>
        <time>2014-11-13T10:28:05Z</time>
      </trkpt>
      <trkpt lat="44.81708" lon="4.43701">
        <ele>782</ele>
        <time>2014-11-13T10:28:20Z</time>
      </trkpt>
      <trkpt lat="44.81708" lon="4.43705">
        <ele>782</ele>
        <time>2014-11-13T10:28:45Z</time>
      </trkpt>
      <trkpt lat="44.81707" lon="4.43709">
        <ele>785</ele>
        <time>2014-11-13T10:29:00Z</time>
      </trkpt>
      <trkpt lat="44.81692" lon="4.43691">
        <ele>782</ele>
        <time>2014-11-13T10:29:25Z</time>
      </trkpt>
      <trkpt lat="44.81686" lon="4.43685">
        <ele>782</ele>
        <time>2014-11-13T10:29:40Z</time>
      </trkpt>
      <trkpt lat="44.81681" lon="4.4369">
        <ele>782</ele>
        <time>2014-11-13T10:30:00Z</time>
      </trkpt>
      <trkpt lat="44.81671" lon="4.43687">
        <ele>790</ele>
        <time>2014-11-13T10:30:15Z</time>
      </trkpt>
      <trkpt lat="44.81661" lon="4.43689">
        <ele>790</ele>
        <time>2014-11-13T10:30:50Z</time>
      </trkpt>
      <trkpt lat="44.81658" lon="4.4371">
        <ele>795</ele>
        <time>2014-11-13T10:31:25Z</time>
      </trkpt>
      <trkpt lat="44.81661" lon="4.43722">
        <ele>795</ele>
        <time>2014-11-13T10:31:40Z</time>
      </trkpt>
      <trkpt lat="44.81667" lon="4.43736">
        <ele>795</ele>
        <time>2014-11-13T10:32:00Z</time>
      </trkpt>
      <trkpt lat="44.81673" lon="4.43746">
        <ele>802</ele>
        <time>2014-11-13T10:32:15Z</time>
      </trkpt>
      <trkpt lat="44.81674" lon="4.43755">
        <ele>802</ele>
        <time>2014-11-13T10:32:35Z</time>
      </trkpt>
      <trkpt lat="44.8167" lon="4.43762">
        <ele>802</ele>
        <time>2014-11-13T10:32:50Z</time>
      </trkpt>
      <trkpt lat="44.81663" lon="4.43774">
        <ele>807</ele>
        <time>2014-11-13T10:33:10Z</time>
      </trkpt>
      <trkpt lat="44.8166" lon="4.43783">
        <ele>807</ele>
        <time>2014-11-13T10:33:25Z</time>
      </trkpt>
      <trkpt lat="44.81657" lon="4.43791">
        <ele>807</ele>
        <time>2014-11-13T10:33:45Z</time>
      </trkpt>
      <trkpt lat="44.81647" lon="4.43781">
        <ele>814</ele>
        <time>2014-11-13T10:34:00Z</time>
      </trkpt>
      <trkpt lat="44.81639" lon="4.43783">
        <ele>814</ele>
        <time>2014-11-13T10:34:20Z</time>
      </trkpt>
      <trkpt lat="44.81634" lon="4.43787">
        <ele>814</ele>
        <time>2014-11-13T10:34:40Z</time>
      </trkpt>
      <trkpt lat="44.81624" lon="4.43793">
        <ele>826</ele>
        <time>2014-11-13T10:34:55Z</time>
      </trkpt>
      <trkpt lat="44.8162" lon="4.43798">
        <ele>826</ele>
        <time>2014-11-13T10:35:15Z</time>
      </trkpt>
      <trkpt lat="44.81618" lon="4.438">
        <ele>826</ele>
        <time>2014-11-13T10:35:30Z</time>
      </trkpt>
      <trkpt lat="44.81613" lon="4.4381">
        <ele>826</ele>
        <time>2014-11-13T10:35:50Z</time>
      </trkpt>
      <trkpt lat="44.81605" lon="4.43816">
        <ele>826</ele>
        <time>2014-11-13T10:36:05Z</time>
      </trkpt>
      <trkpt lat="44.81594" lon="4.4381">
        <ele>830</ele>
        <time>2014-11-13T10:36:25Z</time>
      </trkpt>
      <trkpt lat="44.8159" lon="4.43812">
        <ele>830</ele>
        <time>2014-11-13T10:36:40Z</time>
      </trkpt>
      <trkpt lat="44.81588" lon="4.43817">
        <ele>830</ele>
        <time>2014-11-13T10:37:05Z</time>
      </trkpt>
      <trkpt lat="44.8159" lon="4.43813">
        <ele>830</ele>
        <time>2014-11-13T10:37:20Z</time>
      </trkpt>
      <trkpt lat="44.81591" lon="4.43807">
        <ele>830</ele>
        <time>2014-11-13T10:37:40Z</time>
      </trkpt>
      <trkpt lat="44.81587" lon="4.43822">
        <ele>838</ele>
        <time>2014-11-13T10:38:00Z</time>
      </trkpt>
      <trkpt lat="44.81588" lon="4.4382">
        <ele>838</ele>
        <time>2014-11-13T10:38:15Z</time>
      </trkpt>
      <trkpt lat="44.81588" lon="4.43809">
        <ele>830</ele>
        <time>2014-11-13T10:38:35Z</time>
      </trkpt>
      <trkpt lat="44.81592" lon="4.4381">
        <ele>830</ele>
        <time>2014-11-13T10:38:50Z</time>
      </trkpt>
      <trkpt lat="44.81587" lon="4.43818">
        <ele>830</ele>
        <time>2014-11-13T10:39:10Z</time>
      </trkpt>
      <trkpt lat="44.81587" lon="4.43813">
        <ele>830</ele>
        <time>2014-11-13T10:39:40Z</time>
      </trkpt>
      <trkpt lat="44.81591" lon="4.43807">
        <ele>830</ele>
        <time>2014-11-13T10:40:00Z</time>
      </trkpt>
      <trkpt lat="44.81588" lon="4.43812">
        <ele>830</ele>
        <time>2014-11-13T10:40:15Z</time>
      </trkpt>
      <trkpt lat="44.81586" lon="4.43815">
        <ele>830</ele>
        <time>2014-11-13T10:40:35Z</time>
      </trkpt>
      <trkpt lat="44.81588" lon="4.43811">
        <ele>830</ele>
        <time>2014-11-13T10:40:55Z</time>
      </trkpt>
      <trkpt lat="44.8158" lon="4.43815">
        <ele>830</ele>
        <time>2014-11-13T10:41:10Z</time>
      </trkpt>
      <trkpt lat="44.81567" lon="4.4382">
        <ele>844</ele>
        <time>2014-11-13T10:41:30Z</time>
      </trkpt>
      <trkpt lat="44.81558" lon="4.43826">
        <ele>844</ele>
        <time>2014-11-13T10:41:45Z</time>
      </trkpt>
      <trkpt lat="44.81551" lon="4.43832">
        <ele>844</ele>
        <time>2014-11-13T10:42:05Z</time>
      </trkpt>
      <trkpt lat="44.81545" lon="4.43835">
        <ele>844</ele>
        <time>2014-11-13T10:42:20Z</time>
      </trkpt>
      <trkpt lat="44.81538" lon="4.4384">
        <ele>849</ele>
        <time>2014-11-13T10:42:40Z</time>
      </trkpt>
      <trkpt lat="44.81536" lon="4.4384">
        <ele>849</ele>
        <time>2014-11-13T10:43:00Z</time>
      </trkpt>
      <trkpt lat="44.81538" lon="4.43843">
        <ele>849</ele>
        <time>2014-11-13T10:43:20Z</time>
      </trkpt>
      <trkpt lat="44.81536" lon="4.43842">
        <ele>849</ele>
        <time>2014-11-13T10:43:35Z</time>
      </trkpt>
      <trkpt lat="44.81526" lon="4.43849">
        <ele>859</ele>
        <time>2014-11-13T10:43:55Z</time>
      </trkpt>
      <trkpt lat="44.81521" lon="4.43856">
        <ele>859</ele>
        <time>2014-11-13T10:44:30Z</time>
      </trkpt>
      <trkpt lat="44.81512" lon="4.43854">
        <ele>863</ele>
        <time>2014-11-13T10:44:45Z</time>
      </trkpt>
      <trkpt lat="44.81497" lon="4.43856">
        <ele>863</ele>
        <time>2014-11-13T10:45:05Z</time>
      </trkpt>
      <trkpt lat="44.8149" lon="4.43856">
        <ele>863</ele>
        <time>2014-11-13T10:45:20Z</time>
      </trkpt>
      <trkpt lat="44.81478" lon="4.43859">
        <ele>867</ele>
        <time>2014-11-13T10:45:40Z</time>
      </trkpt>
      <trkpt lat="44.81466" lon="4.43858">
        <ele>867</ele>
        <time>2014-11-13T10:45:55Z</time>
      </trkpt>
      <trkpt lat="44.81454" lon="4.43858">
        <ele>872</ele>
        <time>2014-11-13T10:46:15Z</time>
      </trkpt>
      <trkpt lat="44.81445" lon="4.43864">
        <ele>872</ele>
        <time>2014-11-13T10:46:30Z</time>
      </trkpt>
      <trkpt lat="44.81443" lon="4.43856">
        <ele>872</ele>
        <time>2014-11-13T10:46:50Z</time>
      </trkpt>
      <trkpt lat="44.81437" lon="4.43863">
        <ele>872</ele>
        <time>2014-11-13T10:47:10Z</time>
      </trkpt>
      <trkpt lat="44.81424" lon="4.43868">
        <ele>876</ele>
        <time>2014-11-13T10:47:30Z</time>
      </trkpt>
      <trkpt lat="44.81411" lon="4.43874">
        <ele>876</ele>
        <time>2014-11-13T10:47:50Z</time>
      </trkpt>
      <trkpt lat="44.81405" lon="4.43881">
        <ele>883</ele>
        <time>2014-11-13T10:48:05Z</time>
      </trkpt>
      <trkpt lat="44.81396" lon="4.43891">
        <ele>886</ele>
        <time>2014-11-13T10:48:25Z</time>
      </trkpt>
      <trkpt lat="44.81391" lon="4.43897">
        <ele>886</ele>
        <time>2014-11-13T10:48:40Z</time>
      </trkpt>
      <trkpt lat="44.81378" lon="4.43902">
        <ele>886</ele>
        <time>2014-11-13T10:49:00Z</time>
      </trkpt>
      <trkpt lat="44.81374" lon="4.43897">
        <ele>890</ele>
        <time>2014-11-13T10:49:15Z</time>
      </trkpt>
      <trkpt lat="44.81361" lon="4.43883">
        <ele>890</ele>
        <time>2014-11-13T10:49:35Z</time>
      </trkpt>
      <trkpt lat="44.8135" lon="4.43868">
        <ele>885</ele>
        <time>2014-11-13T10:49:50Z</time>
      </trkpt>
      <trkpt lat="44.8134" lon="4.43852">
        <ele>891</ele>
        <time>2014-11-13T10:50:10Z</time>
      </trkpt>
      <trkpt lat="44.81332" lon="4.43841">
        <ele>888</ele>
        <time>2014-11-13T10:50:25Z</time>
      </trkpt>
      <trkpt lat="44.81324" lon="4.43827">
        <ele>888</ele>
        <time>2014-11-13T10:50:45Z</time>
      </trkpt>
      <trkpt lat="44.81312" lon="4.43812">
        <ele>898</ele>
        <time>2014-11-13T10:51:05Z</time>
      </trkpt>
      <trkpt lat="44.81307" lon="4.43804">
        <ele>898</ele>
        <time>2014-11-13T10:51:20Z</time>
      </trkpt>
      <trkpt lat="44.81305" lon="4.43801">
        <ele>898</ele>
        <time>2014-11-13T10:51:45Z</time>
      </trkpt>
      <trkpt lat="44.81296" lon="4.43796">
        <ele>898</ele>
        <time>2014-11-13T10:52:00Z</time>
      </trkpt>
      <trkpt lat="44.8129" lon="4.43779">
        <ele>906</ele>
        <time>2014-11-13T10:52:20Z</time>
      </trkpt>
      <trkpt lat="44.81282" lon="4.43763">
        <ele>902</ele>
        <time>2014-11-13T10:52:35Z</time>
      </trkpt>
      <trkpt lat="44.81276" lon="4.43752">
        <ele>902</ele>
        <time>2014-11-13T10:52:55Z</time>
      </trkpt>
      <trkpt lat="44.81272" lon="4.4374">
        <ele>902</ele>
        <time>2014-11-13T10:53:10Z</time>
      </trkpt>
      <trkpt lat="44.81261" lon="4.43722">
        <ele>910</ele>
        <time>2014-11-13T10:53:30Z</time>
      </trkpt>
      <trkpt lat="44.8126" lon="4.43716">
        <ele>910</ele>
        <time>2014-11-13T10:53:45Z</time>
      </trkpt>
      <trkpt lat="44.8125" lon="4.43691">
        <ele>904</ele>
        <time>2014-11-13T10:54:20Z</time>
      </trkpt>
      <trkpt lat="44.81239" lon="4.43674">
        <ele>900</ele>
        <time>2014-11-13T10:54:40Z</time>
      </trkpt>
      <trkpt lat="44.81238" lon="4.43654">
        <ele>900</ele>
        <time>2014-11-13T10:54:55Z</time>
      </trkpt>
      <trkpt lat="44.81242" lon="4.4364">
        <ele>902</ele>
        <time>2014-11-13T10:55:15Z</time>
      </trkpt>
      <trkpt lat="44.81246" lon="4.43628">
        <ele>902</ele>
        <time>2014-11-13T10:55:30Z</time>
      </trkpt>
      <trkpt lat="44.81245" lon="4.43605">
        <ele>908</ele>
        <time>2014-11-13T10:55:50Z</time>
      </trkpt>
      <trkpt lat="44.81256" lon="4.43586">
        <ele>915</ele>
        <time>2014-11-13T10:56:05Z</time>
      </trkpt>
      <trkpt lat="44.81265" lon="4.43559">
        <ele>907</ele>
        <time>2014-11-13T10:56:25Z</time>
      </trkpt>
      <trkpt lat="44.81275" lon="4.43546">
        <ele>907</ele>
        <time>2014-11-13T10:56:40Z</time>
      </trkpt>
      <trkpt lat="44.81275" lon="4.43523">
        <ele>915</ele>
        <time>2014-11-13T10:57:00Z</time>
      </trkpt>
      <trkpt lat="44.81273" lon="4.43508">
        <ele>921</ele>
        <time>2014-11-13T10:57:15Z</time>
      </trkpt>
      <trkpt lat="44.81269" lon="4.43509">
        <ele>921</ele>
        <time>2014-11-13T10:57:35Z</time>
      </trkpt>
      <trkpt lat="44.81265" lon="4.43516">
        <ele>915</ele>
        <time>2014-11-13T10:57:55Z</time>
      </trkpt>
      <trkpt lat="44.81259" lon="4.43523">
        <ele>925</ele>
        <time>2014-11-13T10:58:15Z</time>
      </trkpt>
      <trkpt lat="44.81252" lon="4.4353">
        <ele>925</ele>
        <time>2014-11-13T10:58:55Z</time>
      </trkpt>
      <trkpt lat="44.81246" lon="4.43538">
        <ele>925</ele>
        <time>2014-11-13T10:59:10Z</time>
      </trkpt>
      <trkpt lat="44.81232" lon="4.43554">
        <ele>933</ele>
        <time>2014-11-13T10:59:30Z</time>
      </trkpt>
      <trkpt lat="44.81217" lon="4.43566">
        <ele>933</ele>
        <time>2014-11-13T10:59:45Z</time>
      </trkpt>
      <trkpt lat="44.81207" lon="4.43573">
        <ele>941</ele>
        <time>2014-11-13T11:00:05Z</time>
      </trkpt>
      <trkpt lat="44.81201" lon="4.43581">
        <ele>941</ele>
        <time>2014-11-13T11:00:25Z</time>
      </trkpt>
      <trkpt lat="44.81191" lon="4.43589">
        <ele>941</ele>
        <time>2014-11-13T11:00:45Z</time>
      </trkpt>
      <trkpt lat="44.81181" lon="4.43592">
        <ele>941</ele>
        <time>2014-11-13T11:01:00Z</time>
      </trkpt>
      <trkpt lat="44.81176" lon="4.43595">
        <ele>950</ele>
        <time>2014-11-13T11:01:20Z</time>
      </trkpt>
      <trkpt lat="44.81166" lon="4.43597">
        <ele>950</ele>
        <time>2014-11-13T11:01:40Z</time>
      </trkpt>
      <trkpt lat="44.81156" lon="4.43603">
        <ele>946</ele>
        <time>2014-11-13T11:01:55Z</time>
      </trkpt>
      <trkpt lat="44.81146" lon="4.43605">
        <ele>953</ele>
        <time>2014-11-13T11:02:15Z</time>
      </trkpt>
      <trkpt lat="44.81139" lon="4.43605">
        <ele>953</ele>
        <time>2014-11-13T11:02:45Z</time>
      </trkpt>
      <trkpt lat="44.81135" lon="4.43604">
        <ele>953</ele>
        <time>2014-11-13T11:03:30Z</time>
      </trkpt>
      <trkpt lat="44.81125" lon="4.43608">
        <ele>953</ele>
        <time>2014-11-13T11:03:50Z</time>
      </trkpt>
      <trkpt lat="44.8112" lon="4.43608">
        <ele>962</ele>
        <time>2014-11-13T11:04:10Z</time>
      </trkpt>
      <trkpt lat="44.81108" lon="4.43607">
        <ele>962</ele>
        <time>2014-11-13T11:04:25Z</time>
      </trkpt>
      <trkpt lat="44.81098" lon="4.43607">
        <ele>962</ele>
        <time>2014-11-13T11:04:45Z</time>
      </trkpt>
      <trkpt lat="44.81093" lon="4.43612">
        <ele>969</ele>
        <time>2014-11-13T11:05:00Z</time>
      </trkpt>
      <trkpt lat="44.81092" lon="4.43606">
        <ele>969</ele>
        <time>2014-11-13T11:05:20Z</time>
      </trkpt>
      <trkpt lat="44.81083" lon="4.43597">
        <ele>970</ele>
        <time>2014-11-13T11:05:40Z</time>
      </trkpt>
      <trkpt lat="44.81075" lon="4.43594">
        <ele>970</ele>
        <time>2014-11-13T11:05:55Z</time>
      </trkpt>
      <trkpt lat="44.81064" lon="4.43592">
        <ele>973</ele>
        <time>2014-11-13T11:06:15Z</time>
      </trkpt>
      <trkpt lat="44.81056" lon="4.43589">
        <ele>973</ele>
        <time>2014-11-13T11:06:30Z</time>
      </trkpt>
      <trkpt lat="44.8105" lon="4.43583">
        <ele>973</ele>
        <time>2014-11-13T11:06:50Z</time>
      </trkpt>
      <trkpt lat="44.81041" lon="4.43581">
        <ele>973</ele>
        <time>2014-11-13T11:07:05Z</time>
      </trkpt>
      <trkpt lat="44.81035" lon="4.43581">
        <ele>973</ele>
        <time>2014-11-13T11:07:25Z</time>
      </trkpt>
      <trkpt lat="44.81034" lon="4.4358">
        <ele>973</ele>
        <time>2014-11-13T11:07:40Z</time>
      </trkpt>
      <trkpt lat="44.81028" lon="4.43573">
        <ele>973</ele>
        <time>2014-11-13T11:08:10Z</time>
      </trkpt>
      <trkpt lat="44.81021" lon="4.43576">
        <ele>973</ele>
        <time>2014-11-13T11:08:25Z</time>
      </trkpt>
      <trkpt lat="44.81013" lon="4.43579">
        <ele>969</ele>
        <time>2014-11-13T11:08:55Z</time>
      </trkpt>
      <trkpt lat="44.81011" lon="4.43582">
        <ele>969</ele>
        <time>2014-11-13T11:09:30Z</time>
      </trkpt>
      <trkpt lat="44.81012" lon="4.43581">
        <ele>969</ele>
        <time>2014-11-13T11:09:45Z</time>
      </trkpt>
      <trkpt lat="44.81008" lon="4.43578">
        <ele>969</ele>
        <time>2014-11-13T11:10:05Z</time>
      </trkpt>
      <trkpt lat="44.81008" lon="4.43582">
        <ele>969</ele>
        <time>2014-11-13T11:10:25Z</time>
      </trkpt>
      <trkpt lat="44.81005" lon="4.43582">
        <ele>969</ele>
        <time>2014-11-13T11:10:45Z</time>
      </trkpt>
      <trkpt lat="44.81007" lon="4.43581">
        <ele>969</ele>
        <time>2014-11-13T11:11:10Z</time>
      </trkpt>
      <trkpt lat="44.81008" lon="4.43577">
        <ele>969</ele>
        <time>2014-11-13T11:11:30Z</time>
      </trkpt>
      <trkpt lat="44.81008" lon="4.43579">
        <ele>969</ele>
        <time>2014-11-13T11:11:45Z</time>
      </trkpt>
      <trkpt lat="44.81007" lon="4.43578">
        <ele>969</ele>
        <time>2014-11-13T11:12:10Z</time>
      </trkpt>
      <trkpt lat="44.81003" lon="4.43571">
        <ele>969</ele>
        <time>2014-11-13T11:12:30Z</time>
      </trkpt>
      <trkpt lat="44.81001" lon="4.43568">
        <ele>976</ele>
        <time>2014-11-13T11:13:00Z</time>
      </trkpt>
      <trkpt lat="44.80998" lon="4.43565">
        <ele>976</ele>
        <time>2014-11-13T11:13:20Z</time>
      </trkpt>
      <trkpt lat="44.81002" lon="4.43565">
        <ele>976</ele>
        <time>2014-11-13T11:13:40Z</time>
      </trkpt>
      <trkpt lat="44.80998" lon="4.43571">
        <ele>969</ele>
        <time>2014-11-13T11:14:00Z</time>
      </trkpt>
      <trkpt lat="44.80997" lon="4.43568">
        <ele>976</ele>
        <time>2014-11-13T11:14:15Z</time>
      </trkpt>
      <trkpt lat="44.80992" lon="4.43561">
        <ele>976</ele>
        <time>2014-11-13T11:14:35Z</time>
      </trkpt>
      <trkpt lat="44.80991" lon="4.43548">
        <ele>976</ele>
        <time>2014-11-13T11:14:50Z</time>
      </trkpt>
      <trkpt lat="44.80985" lon="4.43533">
        <ele>983</ele>
        <time>2014-11-13T11:15:10Z</time>
      </trkpt>
      <trkpt lat="44.80981" lon="4.4352">
        <ele>983</ele>
        <time>2014-11-13T11:15:25Z</time>
      </trkpt>
      <trkpt lat="44.80978" lon="4.43499">
        <ele>987</ele>
        <time>2014-11-13T11:15:45Z</time>
      </trkpt>
      <trkpt lat="44.80976" lon="4.43486">
        <ele>990</ele>
        <time>2014-11-13T11:16:00Z</time>
      </trkpt>
      <trkpt lat="44.80971" lon="4.4347">
        <ele>990</ele>
        <time>2014-11-13T11:16:20Z</time>
      </trkpt>
      <trkpt lat="44.80967" lon="4.43451">
        <ele>992</ele>
        <time>2014-11-13T11:16:40Z</time>
      </trkpt>
      <trkpt lat="44.80962" lon="4.43437">
        <ele>992</ele>
        <time>2014-11-13T11:16:55Z</time>
      </trkpt>
      <trkpt lat="44.80953" lon="4.43419">
        <ele>994</ele>
        <time>2014-11-13T11:17:15Z</time>
      </trkpt>
      <trkpt lat="44.80944" lon="4.43408">
        <ele>994</ele>
        <time>2014-11-13T11:17:30Z</time>
      </trkpt>
      <trkpt lat="44.80936" lon="4.43401">
        <ele>997</ele>
        <time>2014-11-13T11:17:50Z</time>
      </trkpt>
      <trkpt lat="44.80937" lon="4.43404">
        <ele>994</ele>
        <time>2014-11-13T11:18:05Z</time>
      </trkpt>
      <trkpt lat="44.8094" lon="4.43399">
        <ele>997</ele>
        <time>2014-11-13T11:18:25Z</time>
      </trkpt>
      <trkpt lat="44.80944" lon="4.434">
        <ele>997</ele>
        <time>2014-11-13T11:18:40Z</time>
      </trkpt>
      <trkpt lat="44.80945" lon="4.43397">
        <ele>997</ele>
        <time>2014-11-13T11:19:10Z</time>
      </trkpt>
      <trkpt lat="44.80947" lon="4.43395">
        <ele>997</ele>
        <time>2014-11-13T11:19:25Z</time>
      </trkpt>
      <trkpt lat="44.80943" lon="4.43405">
        <ele>994</ele>
        <time>2014-11-13T11:19:45Z</time>
      </trkpt>
      <trkpt lat="44.80939" lon="4.43402">
        <ele>997</ele>
        <time>2014-11-13T11:20:05Z</time>
      </trkpt>
      <trkpt lat="44.80938" lon="4.43403">
        <ele>997</ele>
        <time>2014-11-13T11:20:20Z</time>
      </trkpt>
      <trkpt lat="44.80937" lon="4.43402">
        <ele>997</ele>
        <time>2014-11-13T11:20:45Z</time>
      </trkpt>
      <trkpt lat="44.80938" lon="4.43402">
        <ele>997</ele>
        <time>2014-11-13T11:21:10Z</time>
      </trkpt>
      <trkpt lat="44.80941" lon="4.43403">
        <ele>997</ele>
        <time>2014-11-13T11:21:30Z</time>
      </trkpt>
      <trkpt lat="44.80943" lon="4.43399">
        <ele>997</ele>
        <time>2014-11-13T11:21:45Z</time>
      </trkpt>
      <trkpt lat="44.80937" lon="4.43402">
        <ele>997</ele>
        <time>2014-11-13T11:22:20Z</time>
      </trkpt>
      <trkpt lat="44.80939" lon="4.43408">
        <ele>994</ele>
        <time>2014-11-13T11:22:35Z</time>
      </trkpt>
      <trkpt lat="44.80941" lon="4.43406">
        <ele>994</ele>
        <time>2014-11-13T11:22:55Z</time>
      </trkpt>
      <trkpt lat="44.80941" lon="4.43405">
        <ele>994</ele>
        <time>2014-11-13T11:23:25Z</time>
      </trkpt>
      <trkpt lat="44.80941" lon="4.43403">
        <ele>997</ele>
        <time>2014-11-13T11:24:00Z</time>
      </trkpt>
      <trkpt lat="44.8094" lon="4.43402">
        <ele>997</ele>
        <time>2014-11-13T11:24:20Z</time>
      </trkpt>
      <trkpt lat="44.80935" lon="4.43399">
        <ele>997</ele>
        <time>2014-11-13T11:24:35Z</time>
      </trkpt>
      <trkpt lat="44.80918" lon="4.43384">
        <ele>991</ele>
        <time>2014-11-13T11:24:55Z</time>
      </trkpt>
      <trkpt lat="44.80914" lon="4.4337">
        <ele>993</ele>
        <time>2014-11-13T11:25:10Z</time>
      </trkpt>
      <trkpt lat="44.80908" lon="4.43357">
        <ele>993</ele>
        <time>2014-11-13T11:25:30Z</time>
      </trkpt>
      <trkpt lat="44.80907" lon="4.43336">
        <ele>994</ele>
        <time>2014-11-13T11:25:45Z</time>
      </trkpt>
      <trkpt lat="44.80908" lon="4.43323">
        <ele>994</ele>
        <time>2014-11-13T11:26:05Z</time>
      </trkpt>
      <trkpt lat="44.80909" lon="4.43318">
        <ele>995</ele>
        <time>2014-11-13T11:26:20Z</time>
      </trkpt>
      <trkpt lat="44.80912" lon="4.43296">
        <ele>995</ele>
        <time>2014-11-13T11:26:40Z</time>
      </trkpt>
      <trkpt lat="44.8091" lon="4.43262">
        <ele>998</ele>
        <time>2014-11-13T11:27:00Z</time>
      </trkpt>
      <trkpt lat="44.80904" lon="4.43239">
        <ele>998</ele>
        <time>2014-11-13T11:27:15Z</time>
      </trkpt>
      <trkpt lat="44.80894" lon="4.43219">
        <ele>997</ele>
        <time>2014-11-13T11:27:35Z</time>
      </trkpt>
      <trkpt lat="44.80892" lon="4.43202">
        <ele>999</ele>
        <time>2014-11-13T11:27:50Z</time>
      </trkpt>
      <trkpt lat="44.80884" lon="4.43174">
        <ele>1000</ele>
        <time>2014-11-13T11:28:10Z</time>
      </trkpt>
      <trkpt lat="44.80879" lon="4.43156">
        <ele>1000</ele>
        <time>2014-11-13T11:28:25Z</time>
      </trkpt>
      <trkpt lat="44.80876" lon="4.43129">
        <ele>1002</ele>
        <time>2014-11-13T11:28:45Z</time>
      </trkpt>
      <trkpt lat="44.80878" lon="4.43117">
        <ele>1003</ele>
        <time>2014-11-13T11:29:00Z</time>
      </trkpt>
      <trkpt lat="44.80875" lon="4.43091">
        <ele>1005</ele>
        <time>2014-11-13T11:29:20Z</time>
      </trkpt>
      <trkpt lat="44.80869" lon="4.43076">
        <ele>999</ele>
        <time>2014-11-13T11:29:35Z</time>
      </trkpt>
      <trkpt lat="44.80863" lon="4.4306">
        <ele>1002</ele>
        <time>2014-11-13T11:29:55Z</time>
      </trkpt>
      <trkpt lat="44.80861" lon="4.43033">
        <ele>1005</ele>
        <time>2014-11-13T11:30:15Z</time>
      </trkpt>
      <trkpt lat="44.80851" lon="4.43019">
        <ele>1005</ele>
        <time>2014-11-13T11:30:30Z</time>
      </trkpt>
      <trkpt lat="44.80833" lon="4.43006">
        <ele>1000</ele>
        <time>2014-11-13T11:30:50Z</time>
      </trkpt>
      <trkpt lat="44.80829" lon="4.42999">
        <ele>1000</ele>
        <time>2014-11-13T11:31:05Z</time>
      </trkpt>
      <trkpt lat="44.80827" lon="4.43003">
        <ele>1000</ele>
        <time>2014-11-13T11:31:25Z</time>
      </trkpt>
      <trkpt lat="44.80816" lon="4.43002">
        <ele>997</ele>
        <time>2014-11-13T11:31:50Z</time>
      </trkpt>
      <trkpt lat="44.80799" lon="4.43001">
        <ele>997</ele>
        <time>2014-11-13T11:32:10Z</time>
      </trkpt>
      <trkpt lat="44.80786" lon="4.42999">
        <ele>995</ele>
        <time>2014-11-13T11:32:25Z</time>
      </trkpt>
      <trkpt lat="44.8077" lon="4.42993">
        <ele>995</ele>
        <time>2014-11-13T11:32:45Z</time>
      </trkpt>
      <trkpt lat="44.80764" lon="4.42989">
        <ele>993</ele>
        <time>2014-11-13T11:33:00Z</time>
      </trkpt>
      <trkpt lat="44.80753" lon="4.4297">
        <ele>996</ele>
        <time>2014-11-13T11:33:20Z</time>
      </trkpt>
      <trkpt lat="44.80741" lon="4.42958">
        <ele>1002</ele>
        <time>2014-11-13T11:33:40Z</time>
      </trkpt>
      <trkpt lat="44.80729" lon="4.42946">
        <ele>1002</ele>
        <time>2014-11-13T11:33:55Z</time>
      </trkpt>
      <trkpt lat="44.80714" lon="4.4293">
        <ele>1007</ele>
        <time>2014-11-13T11:34:15Z</time>
      </trkpt>
      <trkpt lat="44.80701" lon="4.42917">
        <ele>1005</ele>
        <time>2014-11-13T11:34:30Z</time>
      </trkpt>
      <trkpt lat="44.80686" lon="4.42904">
        <ele>1005</ele>
        <time>2014-11-13T11:34:50Z</time>
      </trkpt>
      <trkpt lat="44.80675" lon="4.42892">
        <ele>1011</ele>
        <time>2014-11-13T11:35:05Z</time>
      </trkpt>
      <trkpt lat="44.80668" lon="4.42872">
        <ele>1016</ele>
        <time>2014-11-13T11:35:25Z</time>
      </trkpt>
      <trkpt lat="44.80671" lon="4.42856">
        <ele>1016</ele>
        <time>2014-11-13T11:35:40Z</time>
      </trkpt>
      <trkpt lat="44.80672" lon="4.42832">
        <ele>1018</ele>
        <time>2014-11-13T11:36:00Z</time>
      </trkpt>
      <trkpt lat="44.80662" lon="4.42818">
        <ele>1018</ele>
        <time>2014-11-13T11:36:15Z</time>
      </trkpt>
      <trkpt lat="44.80645" lon="4.42802">
        <ele>1018</ele>
        <time>2014-11-13T11:36:35Z</time>
      </trkpt>
      <trkpt lat="44.8063" lon="4.42792">
        <ele>1018</ele>
        <time>2014-11-13T11:36:55Z</time>
      </trkpt>
      <trkpt lat="44.80625" lon="4.42791">
        <ele>1019</ele>
        <time>2014-11-13T11:37:10Z</time>
      </trkpt>
      <trkpt lat="44.80623" lon="4.4279">
        <ele>1018</ele>
        <time>2014-11-13T11:37:30Z</time>
      </trkpt>
      <trkpt lat="44.80625" lon="4.42787">
        <ele>1019</ele>
        <time>2014-11-13T11:37:50Z</time>
      </trkpt>
      <trkpt lat="44.80625" lon="4.42783">
        <ele>1018</ele>
        <time>2014-11-13T11:38:10Z</time>
      </trkpt>
      <trkpt lat="44.80622" lon="4.42783">
        <ele>1018</ele>
        <time>2014-11-13T11:38:25Z</time>
      </trkpt>
      <trkpt lat="44.80623" lon="4.4278">
        <ele>1018</ele>
        <time>2014-11-13T11:38:45Z</time>
      </trkpt>
      <trkpt lat="44.80622" lon="4.42783">
        <ele>1018</ele>
        <time>2014-11-13T11:39:00Z</time>
      </trkpt>
      <trkpt lat="44.80621" lon="4.42781">
        <ele>1018</ele>
        <time>2014-11-13T11:39:20Z</time>
      </trkpt>
      <trkpt lat="44.80619" lon="4.4278">
        <ele>1018</ele>
        <time>2014-11-13T11:39:40Z</time>
      </trkpt>
      <trkpt lat="44.8062" lon="4.42783">
        <ele>1018</ele>
        <time>2014-11-13T11:40:00Z</time>
      </trkpt>
      <trkpt lat="44.8062" lon="4.42768">
        <ele>1018</ele>
        <time>2014-11-13T11:40:25Z</time>
      </trkpt>
      <trkpt lat="44.8062" lon="4.42752">
        <ele>1019</ele>
        <time>2014-11-13T11:40:40Z</time>
      </trkpt>
      <trkpt lat="44.80624" lon="4.42748">
        <ele>1019</ele>
        <time>2014-11-13T11:41:00Z</time>
      </trkpt>
      <trkpt lat="44.80626" lon="4.4273">
        <ele>1015</ele>
        <time>2014-11-13T11:41:15Z</time>
      </trkpt>
      <trkpt lat="44.80624" lon="4.42724">
        <ele>1018</ele>
        <time>2014-11-13T11:41:35Z</time>
      </trkpt>
      <trkpt lat="44.80623" lon="4.42708">
        <ele>1014</ele>
        <time>2014-11-13T11:41:50Z</time>
      </trkpt>
      <trkpt lat="44.8062" lon="4.42677">
        <ele>1013</ele>
        <time>2014-11-13T11:42:10Z</time>
      </trkpt>
      <trkpt lat="44.80621" lon="4.42652">
        <ele>1015</ele>
        <time>2014-11-13T11:42:25Z</time>
      </trkpt>
      <trkpt lat="44.80622" lon="4.42614">
        <ele>1017</ele>
        <time>2014-11-13T11:42:45Z</time>
      </trkpt>
      <trkpt lat="44.80621" lon="4.42588">
        <ele>1018</ele>
        <time>2014-11-13T11:43:00Z</time>
      </trkpt>
      <trkpt lat="44.8062" lon="4.4255">
        <ele>1017</ele>
        <time>2014-11-13T11:43:20Z</time>
      </trkpt>
      <trkpt lat="44.80619" lon="4.42514">
        <ele>1018</ele>
        <time>2014-11-13T11:43:40Z</time>
      </trkpt>
      <trkpt lat="44.8062" lon="4.42487">
        <ele>1018</ele>
        <time>2014-11-13T11:43:55Z</time>
      </trkpt>
      <trkpt lat="44.80625" lon="4.42453">
        <ele>1020</ele>
        <time>2014-11-13T11:44:15Z</time>
      </trkpt>
      <trkpt lat="44.80627" lon="4.4243">
        <ele>1010</ele>
        <time>2014-11-13T11:44:30Z</time>
      </trkpt>
      <trkpt lat="44.8063" lon="4.42406">
        <ele>1010</ele>
        <time>2014-11-13T11:44:50Z</time>
      </trkpt>
      <trkpt lat="44.80635" lon="4.42385">
        <ele>1009</ele>
        <time>2014-11-13T11:45:05Z</time>
      </trkpt>
      <trkpt lat="44.80644" lon="4.42358">
        <ele>1013</ele>
        <time>2014-11-13T11:45:25Z</time>
      </trkpt>
      <trkpt lat="44.8065" lon="4.42337">
        <ele>1018</ele>
        <time>2014-11-13T11:45:40Z</time>
      </trkpt>
      <trkpt lat="44.80659" lon="4.4231">
        <ele>1013</ele>
        <time>2014-11-13T11:46:00Z</time>
      </trkpt>
      <trkpt lat="44.80663" lon="4.42289">
        <ele>1016</ele>
        <time>2014-11-13T11:46:15Z</time>
      </trkpt>
      <trkpt lat="44.8066" lon="4.42258">
        <ele>1016</ele>
        <time>2014-11-13T11:46:35Z</time>
      </trkpt>
      <trkpt lat="44.80654" lon="4.42223">
        <ele>1012</ele>
        <time>2014-11-13T11:46:55Z</time>
      </trkpt>
      <trkpt lat="44.80649" lon="4.42199">
        <ele>1018</ele>
        <time>2014-11-13T11:47:10Z</time>
      </trkpt>
      <trkpt lat="44.8064" lon="4.42172">
        <ele>1015</ele>
        <time>2014-11-13T11:47:30Z</time>
      </trkpt>
      <trkpt lat="44.8064" lon="4.42149">
        <ele>1013</ele>
        <time>2014-11-13T11:47:45Z</time>
      </trkpt>
      <trkpt lat="44.80636" lon="4.42117">
        <ele>1011</ele>
        <time>2014-11-13T11:48:05Z</time>
      </trkpt>
      <trkpt lat="44.80637" lon="4.42093">
        <ele>1011</ele>
        <time>2014-11-13T11:48:20Z</time>
      </trkpt>
      <trkpt lat="44.80644" lon="4.42058">
        <ele>1011</ele>
        <time>2014-11-13T11:48:40Z</time>
      </trkpt>
      <trkpt lat="44.80648" lon="4.42036">
        <ele>1010</ele>
        <time>2014-11-13T11:48:55Z</time>
      </trkpt>
      <trkpt lat="44.80637" lon="4.42009">
        <ele>1009</ele>
        <time>2014-11-13T11:49:15Z</time>
      </trkpt>
      <trkpt lat="44.80628" lon="4.4199">
        <ele>1009</ele>
        <time>2014-11-13T11:49:30Z</time>
      </trkpt>
      <trkpt lat="44.80617" lon="4.41964">
        <ele>1018</ele>
        <time>2014-11-13T11:49:50Z</time>
      </trkpt>
      <trkpt lat="44.80605" lon="4.41938">
        <ele>1019</ele>
        <time>2014-11-13T11:50:10Z</time>
      </trkpt>
      <trkpt lat="44.80596" lon="4.41918">
        <ele>1024</ele>
        <time>2014-11-13T11:50:25Z</time>
      </trkpt>
      <trkpt lat="44.80584" lon="4.41891">
        <ele>1019</ele>
        <time>2014-11-13T11:50:45Z</time>
      </trkpt>
      <trkpt lat="44.80574" lon="4.41872">
        <ele>1017</ele>
        <time>2014-11-13T11:51:00Z</time>
      </trkpt>
      <trkpt lat="44.80562" lon="4.41847">
        <ele>1027</ele>
        <time>2014-11-13T11:51:20Z</time>
      </trkpt>
      <trkpt lat="44.80553" lon="4.41828">
        <ele>1027</ele>
        <time>2014-11-13T11:51:35Z</time>
      </trkpt>
      <trkpt lat="44.80541" lon="4.41813">
        <ele>1033</ele>
        <time>2014-11-13T11:51:55Z</time>
      </trkpt>
      <trkpt lat="44.80532" lon="4.41797">
        <ele>1033</ele>
        <time>2014-11-13T11:52:10Z</time>
      </trkpt>
      <trkpt lat="44.80531" lon="4.41797">
        <ele>1033</ele>
        <time>2014-11-13T11:52:35Z</time>
      </trkpt>
      <trkpt lat="44.80532" lon="4.41793">
        <ele>1033</ele>
        <time>2014-11-13T11:52:50Z</time>
      </trkpt>
      <trkpt lat="44.8053" lon="4.41792">
        <ele>1033</ele>
        <time>2014-11-13T11:53:15Z</time>
      </trkpt>
      <trkpt lat="44.80529" lon="4.41792">
        <ele>1033</ele>
        <time>2014-11-13T11:53:50Z</time>
      </trkpt>
      <trkpt lat="44.80528" lon="4.41797">
        <ele>1033</ele>
        <time>2014-11-13T11:54:15Z</time>
      </trkpt>
      <trkpt lat="44.8053" lon="4.41813">
        <ele>1033</ele>
        <time>2014-11-13T11:54:35Z</time>
      </trkpt>
      <trkpt lat="44.80527" lon="4.41809">
        <ele>1033</ele>
        <time>2014-11-13T11:54:50Z</time>
      </trkpt>
      <trkpt lat="44.80528" lon="4.4182">
        <ele>1034</ele>
        <time>2014-11-13T11:55:15Z</time>
      </trkpt>
      <trkpt lat="44.80525" lon="4.41842">
        <ele>1034</ele>
        <time>2014-11-13T11:55:30Z</time>
      </trkpt>
      <trkpt lat="44.80515" lon="4.41865">
        <ele>1033</ele>
        <time>2014-11-13T11:55:50Z</time>
      </trkpt>
      <trkpt lat="44.80502" lon="4.41878">
        <ele>1037</ele>
        <time>2014-11-13T11:56:05Z</time>
      </trkpt>
      <trkpt lat="44.80491" lon="4.41888">
        <ele>1037</ele>
        <time>2014-11-13T11:56:25Z</time>
      </trkpt>
      <trkpt lat="44.80488" lon="4.41894">
        <ele>1037</ele>
        <time>2014-11-13T11:56:45Z</time>
      </trkpt>
      <trkpt lat="44.80476" lon="4.41909">
        <ele>1047</ele>
        <time>2014-11-13T11:57:05Z</time>
      </trkpt>
      <trkpt lat="44.8047" lon="4.41919">
        <ele>1047</ele>
        <time>2014-11-13T11:57:25Z</time>
      </trkpt>
      <trkpt lat="44.80464" lon="4.41917">
        <ele>1047</ele>
        <time>2014-11-13T11:57:40Z</time>
      </trkpt>
      <trkpt lat="44.80462" lon="4.41911">
        <ele>1047</ele>
        <time>2014-11-13T11:58:10Z</time>
      </trkpt>
      <trkpt lat="44.80462" lon="4.4191">
        <ele>1047</ele>
        <time>2014-11-13T11:58:30Z</time>
      </trkpt>
      <trkpt lat="44.80461" lon="4.41914">
        <ele>1047</ele>
        <time>2014-11-13T11:58:55Z</time>
      </trkpt>
      <trkpt lat="44.80464" lon="4.41918">
        <ele>1047</ele>
        <time>2014-11-13T11:59:15Z</time>
      </trkpt>
      <trkpt lat="44.8048" lon="4.41916">
        <ele>1047</ele>
        <time>2014-11-13T12:40:36Z</time>
      </trkpt>
      <trkpt lat="44.80485" lon="4.41904">
        <ele>1047</ele>
        <time>2014-11-13T12:40:51Z</time>
      </trkpt>
      <trkpt lat="44.80491" lon="4.41889">
        <ele>1037</ele>
        <time>2014-11-13T12:41:11Z</time>
      </trkpt>
      <trkpt lat="44.80502" lon="4.41876">
        <ele>1037</ele>
        <time>2014-11-13T12:41:26Z</time>
      </trkpt>
      <trkpt lat="44.80517" lon="4.41864">
        <ele>1033</ele>
        <time>2014-11-13T12:41:46Z</time>
      </trkpt>
      <trkpt lat="44.80527" lon="4.41844">
        <ele>1034</ele>
        <time>2014-11-13T12:42:06Z</time>
      </trkpt>
      <trkpt lat="44.80532" lon="4.41829">
        <ele>1034</ele>
        <time>2014-11-13T12:42:21Z</time>
      </trkpt>
      <trkpt lat="44.80528" lon="4.41803">
        <ele>1033</ele>
        <time>2014-11-13T12:42:41Z</time>
      </trkpt>
      <trkpt lat="44.80519" lon="4.41791">
        <ele>1031</ele>
        <time>2014-11-13T12:42:56Z</time>
      </trkpt>
      <trkpt lat="44.80499" lon="4.41787">
        <ele>1028</ele>
        <time>2014-11-13T12:43:16Z</time>
      </trkpt>
      <trkpt lat="44.80482" lon="4.41785">
        <ele>1025</ele>
        <time>2014-11-13T12:43:31Z</time>
      </trkpt>
      <trkpt lat="44.80464" lon="4.41764">
        <ele>1025</ele>
        <time>2014-11-13T12:43:51Z</time>
      </trkpt>
      <trkpt lat="44.8046" lon="4.41738">
        <ele>1023</ele>
        <time>2014-11-13T12:44:06Z</time>
      </trkpt>
      <trkpt lat="44.80457" lon="4.41714">
        <ele>1018</ele>
        <time>2014-11-13T12:44:26Z</time>
      </trkpt>
      <trkpt lat="44.80452" lon="4.41697">
        <ele>1019</ele>
        <time>2014-11-13T12:44:41Z</time>
      </trkpt>
      <trkpt lat="44.80442" lon="4.4167">
        <ele>1020</ele>
        <time>2014-11-13T12:45:01Z</time>
      </trkpt>
      <trkpt lat="44.80426" lon="4.41644">
        <ele>1014</ele>
        <time>2014-11-13T12:45:21Z</time>
      </trkpt>
      <trkpt lat="44.80419" lon="4.41626">
        <ele>1014</ele>
        <time>2014-11-13T12:45:36Z</time>
      </trkpt>
      <trkpt lat="44.80427" lon="4.41594">
        <ele>1009</ele>
        <time>2014-11-13T12:45:56Z</time>
      </trkpt>
      <trkpt lat="44.80425" lon="4.4158">
        <ele>1009</ele>
        <time>2014-11-13T12:46:11Z</time>
      </trkpt>
      <trkpt lat="44.804" lon="4.41579">
        <ele>1007</ele>
        <time>2014-11-13T12:46:31Z</time>
      </trkpt>
      <trkpt lat="44.80382" lon="4.41573">
        <ele>1007</ele>
        <time>2014-11-13T12:46:46Z</time>
      </trkpt>
      <trkpt lat="44.80357" lon="4.41574">
        <ele>999</ele>
        <time>2014-11-13T12:47:06Z</time>
      </trkpt>
      <trkpt lat="44.80339" lon="4.41572">
        <ele>991</ele>
        <time>2014-11-13T12:47:21Z</time>
      </trkpt>
      <trkpt lat="44.80314" lon="4.41563">
        <ele>989</ele>
        <time>2014-11-13T12:47:41Z</time>
      </trkpt>
      <trkpt lat="44.803" lon="4.41542">
        <ele>989</ele>
        <time>2014-11-13T12:47:56Z</time>
      </trkpt>
      <trkpt lat="44.80284" lon="4.41514">
        <ele>994</ele>
        <time>2014-11-13T12:48:16Z</time>
      </trkpt>
      <trkpt lat="44.80268" lon="4.41486">
        <ele>995</ele>
        <time>2014-11-13T12:48:36Z</time>
      </trkpt>
      <trkpt lat="44.80257" lon="4.41463">
        <ele>997</ele>
        <time>2014-11-13T12:48:51Z</time>
      </trkpt>
      <trkpt lat="44.80235" lon="4.41454">
        <ele>995</ele>
        <time>2014-11-13T12:49:11Z</time>
      </trkpt>
      <trkpt lat="44.80217" lon="4.41457">
        <ele>995</ele>
        <time>2014-11-13T12:49:26Z</time>
      </trkpt>
      <trkpt lat="44.80196" lon="4.41466">
        <ele>994</ele>
        <time>2014-11-13T12:49:46Z</time>
      </trkpt>
      <trkpt lat="44.80194" lon="4.41465">
        <ele>994</ele>
        <time>2014-11-13T12:50:11Z</time>
      </trkpt>
      <trkpt lat="44.80193" lon="4.41462">
        <ele>994</ele>
        <time>2014-11-13T12:50:41Z</time>
      </trkpt>
      <trkpt lat="44.80192" lon="4.41463">
        <ele>994</ele>
        <time>2014-11-13T12:51:01Z</time>
      </trkpt>
      <trkpt lat="44.80196" lon="4.41464">
        <ele>994</ele>
        <time>2014-11-13T12:51:21Z</time>
      </trkpt>
      <trkpt lat="44.80188" lon="4.41467">
        <ele>994</ele>
        <time>2014-11-13T12:51:41Z</time>
      </trkpt>
      <trkpt lat="44.80189" lon="4.41446">
        <ele>994</ele>
        <time>2014-11-13T12:51:56Z</time>
      </trkpt>
      <trkpt lat="44.80175" lon="4.41444">
        <ele>996</ele>
        <time>2014-11-13T12:52:16Z</time>
      </trkpt>
      <trkpt lat="44.80167" lon="4.41434">
        <ele>996</ele>
        <time>2014-11-13T12:52:31Z</time>
      </trkpt>
      <trkpt lat="44.8016" lon="4.41418">
        <ele>997</ele>
        <time>2014-11-13T12:52:51Z</time>
      </trkpt>
      <trkpt lat="44.80156" lon="4.41403">
        <ele>998</ele>
        <time>2014-11-13T12:53:06Z</time>
      </trkpt>
      <trkpt lat="44.8015" lon="4.41384">
        <ele>1007</ele>
        <time>2014-11-13T12:53:26Z</time>
      </trkpt>
      <trkpt lat="44.80148" lon="4.41366">
        <ele>1009</ele>
        <time>2014-11-13T12:53:41Z</time>
      </trkpt>
      <trkpt lat="44.80147" lon="4.41356">
        <ele>1009</ele>
        <time>2014-11-13T12:54:01Z</time>
      </trkpt>
      <trkpt lat="44.80145" lon="4.41349">
        <ele>1009</ele>
        <time>2014-11-13T12:54:16Z</time>
      </trkpt>
      <trkpt lat="44.80138" lon="4.41334">
        <ele>1010</ele>
        <time>2014-11-13T12:54:36Z</time>
      </trkpt>
      <trkpt lat="44.80131" lon="4.41319">
        <ele>1011</ele>
        <time>2014-11-13T12:54:56Z</time>
      </trkpt>
      <trkpt lat="44.80124" lon="4.4131">
        <ele>1021</ele>
        <time>2014-11-13T12:55:11Z</time>
      </trkpt>
      <trkpt lat="44.8012" lon="4.41309">
        <ele>1021</ele>
        <time>2014-11-13T12:55:36Z</time>
      </trkpt>
      <trkpt lat="44.80112" lon="4.41311">
        <ele>1021</ele>
        <time>2014-11-13T12:55:51Z</time>
      </trkpt>
      <trkpt lat="44.80104" lon="4.41318">
        <ele>1021</ele>
        <time>2014-11-13T12:56:11Z</time>
      </trkpt>
      <trkpt lat="44.80099" lon="4.41324">
        <ele>1019</ele>
        <time>2014-11-13T12:56:26Z</time>
      </trkpt>
      <trkpt lat="44.8009" lon="4.41327">
        <ele>1028</ele>
        <time>2014-11-13T12:56:46Z</time>
      </trkpt>
      <trkpt lat="44.80081" lon="4.41329">
        <ele>1028</ele>
        <time>2014-11-13T12:57:01Z</time>
      </trkpt>
      <trkpt lat="44.80069" lon="4.4132">
        <ele>1039</ele>
        <time>2014-11-13T12:57:21Z</time>
      </trkpt>
      <trkpt lat="44.8006" lon="4.4131">
        <ele>1039</ele>
        <time>2014-11-13T12:57:36Z</time>
      </trkpt>
      <trkpt lat="44.80046" lon="4.41298">
        <ele>1039</ele>
        <time>2014-11-13T12:57:56Z</time>
      </trkpt>
      <trkpt lat="44.80032" lon="4.4129">
        <ele>1041</ele>
        <time>2014-11-13T12:58:16Z</time>
      </trkpt>
      <trkpt lat="44.80022" lon="4.41287">
        <ele>1041</ele>
        <time>2014-11-13T12:58:31Z</time>
      </trkpt>
      <trkpt lat="44.80022" lon="4.41288">
        <ele>1041</ele>
        <time>2014-11-13T12:58:56Z</time>
      </trkpt>
      <trkpt lat="44.80024" lon="4.41285">
        <ele>1041</ele>
        <time>2014-11-13T12:59:11Z</time>
      </trkpt>
      <trkpt lat="44.80018" lon="4.41269">
        <ele>1041</ele>
        <time>2014-11-13T12:59:31Z</time>
      </trkpt>
      <trkpt lat="44.80011" lon="4.41249">
        <ele>1041</ele>
        <time>2014-11-13T12:59:46Z</time>
      </trkpt>
      <trkpt lat="44.80001" lon="4.41226">
        <ele>1042</ele>
        <time>2014-11-13T13:00:06Z</time>
      </trkpt>
      <trkpt lat="44.79987" lon="4.41224">
        <ele>1042</ele>
        <time>2014-11-13T13:00:21Z</time>
      </trkpt>
      <trkpt lat="44.79973" lon="4.41199">
        <ele>1044</ele>
        <time>2014-11-13T13:00:41Z</time>
      </trkpt>
      <trkpt lat="44.79968" lon="4.41178">
        <ele>1043</ele>
        <time>2014-11-13T13:00:56Z</time>
      </trkpt>
      <trkpt lat="44.79959" lon="4.41151">
        <ele>1041</ele>
        <time>2014-11-13T13:01:16Z</time>
      </trkpt>
      <trkpt lat="44.79953" lon="4.41127">
        <ele>1047</ele>
        <time>2014-11-13T13:01:36Z</time>
      </trkpt>
      <trkpt lat="44.79951" lon="4.41118">
        <ele>1045</ele>
        <time>2014-11-13T13:01:51Z</time>
      </trkpt>
      <trkpt lat="44.79946" lon="4.41091">
        <ele>1044</ele>
        <time>2014-11-13T13:02:11Z</time>
      </trkpt>
      <trkpt lat="44.79937" lon="4.4108">
        <ele>1044</ele>
        <time>2014-11-13T13:02:26Z</time>
      </trkpt>
      <trkpt lat="44.79922" lon="4.41066">
        <ele>1048</ele>
        <time>2014-11-13T13:02:46Z</time>
      </trkpt>
      <trkpt lat="44.7991" lon="4.41055">
        <ele>1048</ele>
        <time>2014-11-13T13:03:01Z</time>
      </trkpt>
      <trkpt lat="44.79899" lon="4.41028">
        <ele>1052</ele>
        <time>2014-11-13T13:03:21Z</time>
      </trkpt>
      <trkpt lat="44.79894" lon="4.41011">
        <ele>1051</ele>
        <time>2014-11-13T13:03:36Z</time>
      </trkpt>
      <trkpt lat="44.79883" lon="4.40986">
        <ele>1052</ele>
        <time>2014-11-13T13:03:56Z</time>
      </trkpt>
      <trkpt lat="44.79872" lon="4.40978">
        <ele>1057</ele>
        <time>2014-11-13T13:04:11Z</time>
      </trkpt>
      <trkpt lat="44.79862" lon="4.40973">
        <ele>1057</ele>
        <time>2014-11-13T13:04:31Z</time>
      </trkpt>
      <trkpt lat="44.79838" lon="4.40968">
        <ele>1062</ele>
        <time>2014-11-13T13:04:51Z</time>
      </trkpt>
      <trkpt lat="44.79824" lon="4.40969">
        <ele>1062</ele>
        <time>2014-11-13T13:05:06Z</time>
      </trkpt>
      <trkpt lat="44.79808" lon="4.40972">
        <ele>1062</ele>
        <time>2014-11-13T13:05:26Z</time>
      </trkpt>
      <trkpt lat="44.7979" lon="4.40976">
        <ele>1063</ele>
        <time>2014-11-13T13:05:41Z</time>
      </trkpt>
      <trkpt lat="44.79772" lon="4.40987">
        <ele>1065</ele>
        <time>2014-11-13T13:06:01Z</time>
      </trkpt>
      <trkpt lat="44.79756" lon="4.40985">
        <ele>1064</ele>
        <time>2014-11-13T13:06:16Z</time>
      </trkpt>
      <trkpt lat="44.79734" lon="4.40986">
        <ele>1067</ele>
        <time>2014-11-13T13:06:36Z</time>
      </trkpt>
      <trkpt lat="44.79716" lon="4.40985">
        <ele>1066</ele>
        <time>2014-11-13T13:06:51Z</time>
      </trkpt>
      <trkpt lat="44.79693" lon="4.40992">
        <ele>1066</ele>
        <time>2014-11-13T13:07:11Z</time>
      </trkpt>
      <trkpt lat="44.79678" lon="4.40991">
        <ele>1066</ele>
        <time>2014-11-13T13:07:26Z</time>
      </trkpt>
      <trkpt lat="44.79658" lon="4.40981">
        <ele>1065</ele>
        <time>2014-11-13T13:07:46Z</time>
      </trkpt>
      <trkpt lat="44.79637" lon="4.40974">
        <ele>1066</ele>
        <time>2014-11-13T13:08:06Z</time>
      </trkpt>
      <trkpt lat="44.79624" lon="4.40968">
        <ele>1069</ele>
        <time>2014-11-13T13:08:21Z</time>
      </trkpt>
      <trkpt lat="44.79606" lon="4.4096">
        <ele>1069</ele>
        <time>2014-11-13T13:08:41Z</time>
      </trkpt>
      <trkpt lat="44.79594" lon="4.40956">
        <ele>1077</ele>
        <time>2014-11-13T13:08:56Z</time>
      </trkpt>
      <trkpt lat="44.79579" lon="4.40956">
        <ele>1077</ele>
        <time>2014-11-13T13:09:16Z</time>
      </trkpt>
      <trkpt lat="44.79573" lon="4.40953">
        <ele>1077</ele>
        <time>2014-11-13T13:09:31Z</time>
      </trkpt>
      <trkpt lat="44.79572" lon="4.40948">
        <ele>1077</ele>
        <time>2014-11-13T13:09:51Z</time>
      </trkpt>
      <trkpt lat="44.79571" lon="4.40948">
        <ele>1077</ele>
        <time>2014-11-13T13:10:06Z</time>
      </trkpt>
      <trkpt lat="44.79563" lon="4.40944">
        <ele>1083</ele>
        <time>2014-11-13T13:10:36Z</time>
      </trkpt>
      <trkpt lat="44.79553" lon="4.40943">
        <ele>1083</ele>
        <time>2014-11-13T13:10:51Z</time>
      </trkpt>
      <trkpt lat="44.79546" lon="4.40942">
        <ele>1083</ele>
        <time>2014-11-13T13:11:11Z</time>
      </trkpt>
      <trkpt lat="44.79534" lon="4.40939">
        <ele>1089</ele>
        <time>2014-11-13T13:11:31Z</time>
      </trkpt>
      <trkpt lat="44.79525" lon="4.40931">
        <ele>1089</ele>
        <time>2014-11-13T13:11:46Z</time>
      </trkpt>
      <trkpt lat="44.79517" lon="4.40918">
        <ele>1088</ele>
        <time>2014-11-13T13:12:06Z</time>
      </trkpt>
      <trkpt lat="44.79508" lon="4.40911">
        <ele>1093</ele>
        <time>2014-11-13T13:12:21Z</time>
      </trkpt>
      <trkpt lat="44.79495" lon="4.40893">
        <ele>1094</ele>
        <time>2014-11-13T13:12:41Z</time>
      </trkpt>
      <trkpt lat="44.79492" lon="4.40876">
        <ele>1094</ele>
        <time>2014-11-13T13:12:56Z</time>
      </trkpt>
      <trkpt lat="44.79486" lon="4.40866">
        <ele>1098</ele>
        <time>2014-11-13T13:13:16Z</time>
      </trkpt>
      <trkpt lat="44.79479" lon="4.40858">
        <ele>1098</ele>
        <time>2014-11-13T13:13:31Z</time>
      </trkpt>
      <trkpt lat="44.7947" lon="4.40843">
        <ele>1097</ele>
        <time>2014-11-13T13:13:51Z</time>
      </trkpt>
      <trkpt lat="44.79466" lon="4.40823">
        <ele>1097</ele>
        <time>2014-11-13T13:14:06Z</time>
      </trkpt>
      <trkpt lat="44.79463" lon="4.40798">
        <ele>1099</ele>
        <time>2014-11-13T13:14:26Z</time>
      </trkpt>
      <trkpt lat="44.79456" lon="4.40772">
        <ele>1103</ele>
        <time>2014-11-13T13:14:46Z</time>
      </trkpt>
      <trkpt lat="44.79452" lon="4.40748">
        <ele>1104</ele>
        <time>2014-11-13T13:15:01Z</time>
      </trkpt>
      <trkpt lat="44.79453" lon="4.40724">
        <ele>1106</ele>
        <time>2014-11-13T13:15:21Z</time>
      </trkpt>
      <trkpt lat="44.79448" lon="4.40701">
        <ele>1108</ele>
        <time>2014-11-13T13:15:36Z</time>
      </trkpt>
      <trkpt lat="44.79441" lon="4.40683">
        <ele>1108</ele>
        <time>2014-11-13T13:15:56Z</time>
      </trkpt>
      <trkpt lat="44.79434" lon="4.4067">
        <ele>1112</ele>
        <time>2014-11-13T13:16:11Z</time>
      </trkpt>
      <trkpt lat="44.79423" lon="4.40655">
        <ele>1110</ele>
        <time>2014-11-13T13:16:31Z</time>
      </trkpt>
      <trkpt lat="44.79418" lon="4.40636">
        <ele>1115</ele>
        <time>2014-11-13T13:16:46Z</time>
      </trkpt>
      <trkpt lat="44.79412" lon="4.40609">
        <ele>1117</ele>
        <time>2014-11-13T13:17:06Z</time>
      </trkpt>
      <trkpt lat="44.79412" lon="4.40607">
        <ele>1117</ele>
        <time>2014-11-13T13:17:26Z</time>
      </trkpt>
      <trkpt lat="44.79415" lon="4.40604">
        <ele>1117</ele>
        <time>2014-11-13T13:17:46Z</time>
      </trkpt>
      <trkpt lat="44.79415" lon="4.40597">
        <ele>1115</ele>
        <time>2014-11-13T13:18:06Z</time>
      </trkpt>
      <trkpt lat="44.79415" lon="4.40599">
        <ele>1117</ele>
        <time>2014-11-13T13:18:31Z</time>
      </trkpt>
      <trkpt lat="44.79416" lon="4.40593">
        <ele>1115</ele>
        <time>2014-11-13T13:18:51Z</time>
      </trkpt>
      <trkpt lat="44.79426" lon="4.40588">
        <ele>1115</ele>
        <time>2014-11-13T13:19:06Z</time>
      </trkpt>
      <trkpt lat="44.79435" lon="4.40572">
        <ele>1118</ele>
        <time>2014-11-13T13:19:26Z</time>
      </trkpt>
      <trkpt lat="44.79441" lon="4.4056">
        <ele>1117</ele>
        <time>2014-11-13T13:19:41Z</time>
      </trkpt>
      <trkpt lat="44.79446" lon="4.40534">
        <ele>1117</ele>
        <time>2014-11-13T13:20:01Z</time>
      </trkpt>
      <trkpt lat="44.79443" lon="4.40514">
        <ele>1119</ele>
        <time>2014-11-13T13:20:16Z</time>
      </trkpt>
      <trkpt lat="44.79441" lon="4.40487">
        <ele>1119</ele>
        <time>2014-11-13T13:20:36Z</time>
      </trkpt>
      <trkpt lat="44.79439" lon="4.40465">
        <ele>1123</ele>
        <time>2014-11-13T13:20:51Z</time>
      </trkpt>
      <trkpt lat="44.79439" lon="4.40437">
        <ele>1126</ele>
        <time>2014-11-13T13:21:11Z</time>
      </trkpt>
      <trkpt lat="44.79439" lon="4.4041">
        <ele>1126</ele>
        <time>2014-11-13T13:21:31Z</time>
      </trkpt>
      <trkpt lat="44.7944" lon="4.40389">
        <ele>1128</ele>
        <time>2014-11-13T13:21:46Z</time>
      </trkpt>
      <trkpt lat="44.79435" lon="4.40382">
        <ele>1128</ele>
        <time>2014-11-13T13:22:06Z</time>
      </trkpt>
      <trkpt lat="44.7943" lon="4.40372">
        <ele>1130</ele>
        <time>2014-11-13T13:22:21Z</time>
      </trkpt>
      <trkpt lat="44.79416" lon="4.40369">
        <ele>1130</ele>
        <time>2014-11-13T13:22:41Z</time>
      </trkpt>
      <trkpt lat="44.79417" lon="4.40375">
        <ele>1130</ele>
        <time>2014-11-13T13:22:56Z</time>
      </trkpt>
      <trkpt lat="44.79421" lon="4.40378">
        <ele>1126</ele>
        <time>2014-11-13T13:23:21Z</time>
      </trkpt>
      <trkpt lat="44.79418" lon="4.40371">
        <ele>1130</ele>
        <time>2014-11-13T13:23:36Z</time>
      </trkpt>
      <trkpt lat="44.79418" lon="4.40365">
        <ele>1130</ele>
        <time>2014-11-13T13:23:56Z</time>
      </trkpt>
      <trkpt lat="44.79422" lon="4.40367">
        <ele>1130</ele>
        <time>2014-11-13T13:24:11Z</time>
      </trkpt>
      <trkpt lat="44.7942" lon="4.40365">
        <ele>1130</ele>
        <time>2014-11-13T13:24:41Z</time>
      </trkpt>
      <trkpt lat="44.79419" lon="4.40368">
        <ele>1130</ele>
        <time>2014-11-13T13:25:06Z</time>
      </trkpt>
      <trkpt lat="44.79413" lon="4.4037">
        <ele>1130</ele>
        <time>2014-11-13T13:25:51Z</time>
      </trkpt>
      <trkpt lat="44.79417" lon="4.40369">
        <ele>1130</ele>
        <time>2014-11-13T13:26:06Z</time>
      </trkpt>
      <trkpt lat="44.7942" lon="4.40371">
        <ele>1130</ele>
        <time>2014-11-13T13:26:51Z</time>
      </trkpt>
      <trkpt lat="44.79419" lon="4.40363">
        <ele>1130</ele>
        <time>2014-11-13T13:27:11Z</time>
      </trkpt>
      <trkpt lat="44.7942" lon="4.40367">
        <ele>1130</ele>
        <time>2014-11-13T13:27:36Z</time>
      </trkpt>
      <trkpt lat="44.79422" lon="4.40361">
        <ele>1130</ele>
        <time>2014-11-13T13:27:51Z</time>
      </trkpt>
      <trkpt lat="44.7942" lon="4.40365">
        <ele>1130</ele>
        <time>2014-11-13T13:28:16Z</time>
      </trkpt>
      <trkpt lat="44.79422" lon="4.40362">
        <ele>1130</ele>
        <time>2014-11-13T13:28:31Z</time>
      </trkpt>
      <trkpt lat="44.7942" lon="4.40363">
        <ele>1130</ele>
        <time>2014-11-13T13:28:51Z</time>
      </trkpt>
      <trkpt lat="44.79418" lon="4.40367">
        <ele>1130</ele>
        <time>2014-11-13T13:29:11Z</time>
      </trkpt>
      <trkpt lat="44.79421" lon="4.40365">
        <ele>1130</ele>
        <time>2014-11-13T13:29:26Z</time>
      </trkpt>
      <trkpt lat="44.79421" lon="4.40364">
        <ele>1130</ele>
        <time>2014-11-13T13:29:51Z</time>
      </trkpt>
      <trkpt lat="44.7942" lon="4.40368">
        <ele>1130</ele>
        <time>2014-11-13T13:30:06Z</time>
      </trkpt>
      <trkpt lat="44.79418" lon="4.40362">
        <ele>1130</ele>
        <time>2014-11-13T13:30:36Z</time>
      </trkpt>
      <trkpt lat="44.79419" lon="4.40361">
        <ele>1130</ele>
        <time>2014-11-13T13:30:51Z</time>
      </trkpt>
      <trkpt lat="44.79418" lon="4.40364">
        <ele>1130</ele>
        <time>2014-11-13T13:31:16Z</time>
      </trkpt>
      <trkpt lat="44.79417" lon="4.40367">
        <ele>1130</ele>
        <time>2014-11-13T13:31:36Z</time>
      </trkpt>
      <trkpt lat="44.79418" lon="4.4036">
        <ele>1130</ele>
        <time>2014-11-13T13:32:01Z</time>
      </trkpt>
      <trkpt lat="44.79417" lon="4.4036">
        <ele>1130</ele>
        <time>2014-11-13T13:32:16Z</time>
      </trkpt>
      <trkpt lat="44.79418" lon="4.40368">
        <ele>1130</ele>
        <time>2014-11-13T13:32:36Z</time>
      </trkpt>
      <trkpt lat="44.79415" lon="4.40369">
        <ele>1130</ele>
        <time>2014-11-13T13:32:56Z</time>
      </trkpt>
      <trkpt lat="44.79417" lon="4.40365">
        <ele>1130</ele>
        <time>2014-11-13T13:33:11Z</time>
      </trkpt>
      <trkpt lat="44.7942" lon="4.40365">
        <ele>1130</ele>
        <time>2014-11-13T13:33:36Z</time>
      </trkpt>
      <trkpt lat="44.79424" lon="4.40366">
        <ele>1130</ele>
        <time>2014-11-13T13:33:51Z</time>
      </trkpt>
      <trkpt lat="44.79434" lon="4.40374">
        <ele>1131</ele>
        <time>2014-11-13T13:34:11Z</time>
      </trkpt>
      <trkpt lat="44.79443" lon="4.40392">
        <ele>1128</ele>
        <time>2014-11-13T13:34:26Z</time>
      </trkpt>
      <trkpt lat="44.79447" lon="4.40425">
        <ele>1126</ele>
        <time>2014-11-13T13:34:46Z</time>
      </trkpt>
      <trkpt lat="44.79448" lon="4.40449">
        <ele>1126</ele>
        <time>2014-11-13T13:35:01Z</time>
      </trkpt>
      <trkpt lat="44.7945" lon="4.4048">
        <ele>1123</ele>
        <time>2014-11-13T13:35:21Z</time>
      </trkpt>
      <trkpt lat="44.79449" lon="4.40502">
        <ele>1119</ele>
        <time>2014-11-13T13:35:36Z</time>
      </trkpt>
      <trkpt lat="44.79449" lon="4.40534">
        <ele>1117</ele>
        <time>2014-11-13T13:35:56Z</time>
      </trkpt>
      <trkpt lat="44.79449" lon="4.40544">
        <ele>1117</ele>
        <time>2014-11-13T13:36:16Z</time>
      </trkpt>
      <trkpt lat="44.79458" lon="4.4053">
        <ele>1117</ele>
        <time>2014-11-13T13:36:31Z</time>
      </trkpt>
      <trkpt lat="44.7947" lon="4.4051">
        <ele>1119</ele>
        <time>2014-11-13T13:36:51Z</time>
      </trkpt>
      <trkpt lat="44.79475" lon="4.40493">
        <ele>1119</ele>
        <time>2014-11-13T13:37:06Z</time>
      </trkpt>
      <trkpt lat="44.7949" lon="4.40468">
        <ele>1119</ele>
        <time>2014-11-13T13:37:26Z</time>
      </trkpt>
      <trkpt lat="44.79508" lon="4.4046">
        <ele>1119</ele>
        <time>2014-11-13T13:37:41Z</time>
      </trkpt>
      <trkpt lat="44.79533" lon="4.40453">
        <ele>1116</ele>
        <time>2014-11-13T13:38:01Z</time>
      </trkpt>
      <trkpt lat="44.79548" lon="4.40442">
        <ele>1110</ele>
        <time>2014-11-13T13:38:16Z</time>
      </trkpt>
      <trkpt lat="44.79563" lon="4.40426">
        <ele>1113</ele>
        <time>2014-11-13T13:38:36Z</time>
      </trkpt>
      <trkpt lat="44.79581" lon="4.40393">
        <ele>1109</ele>
        <time>2014-11-13T13:38:56Z</time>
      </trkpt>
      <trkpt lat="44.79589" lon="4.40369">
        <ele>1111</ele>
        <time>2014-11-13T13:39:11Z</time>
      </trkpt>
      <trkpt lat="44.79597" lon="4.40332">
        <ele>1106</ele>
        <time>2014-11-13T13:39:31Z</time>
      </trkpt>
      <trkpt lat="44.79609" lon="4.40313">
        <ele>1106</ele>
        <time>2014-11-13T13:39:46Z</time>
      </trkpt>
      <trkpt lat="44.79631" lon="4.40295">
        <ele>1097</ele>
        <time>2014-11-13T13:40:06Z</time>
      </trkpt>
      <trkpt lat="44.79644" lon="4.40281">
        <ele>1098</ele>
        <time>2014-11-13T13:40:21Z</time>
      </trkpt>
      <trkpt lat="44.79672" lon="4.40258">
        <ele>1093</ele>
        <time>2014-11-13T13:40:41Z</time>
      </trkpt>
      <trkpt lat="44.79685" lon="4.40243">
        <ele>1086</ele>
        <time>2014-11-13T13:40:56Z</time>
      </trkpt>
      <trkpt lat="44.79705" lon="4.40221">
        <ele>1091</ele>
        <time>2014-11-13T13:41:16Z</time>
      </trkpt>
      <trkpt lat="44.79718" lon="4.40207">
        <ele>1090</ele>
        <time>2014-11-13T13:41:31Z</time>
      </trkpt>
      <trkpt lat="44.79742" lon="4.40182">
        <ele>1085</ele>
        <time>2014-11-13T13:41:51Z</time>
      </trkpt>
      <trkpt lat="44.79763" lon="4.40168">
        <ele>1092</ele>
        <time>2014-11-13T13:42:11Z</time>
      </trkpt>
      <trkpt lat="44.79787" lon="4.40162">
        <ele>1088</ele>
        <time>2014-11-13T13:42:26Z</time>
      </trkpt>
      <trkpt lat="44.79811" lon="4.40161">
        <ele>1082</ele>
        <time>2014-11-13T13:42:46Z</time>
      </trkpt>
      <trkpt lat="44.79823" lon="4.40164">
        <ele>1079</ele>
        <time>2014-11-13T13:43:01Z</time>
      </trkpt>
      <trkpt lat="44.79831" lon="4.40164">
        <ele>1079</ele>
        <time>2014-11-13T13:43:21Z</time>
      </trkpt>
      <trkpt lat="44.79838" lon="4.40163">
        <ele>1079</ele>
        <time>2014-11-13T13:43:36Z</time>
      </trkpt>
      <trkpt lat="44.79853" lon="4.40161">
        <ele>1078</ele>
        <time>2014-11-13T13:43:56Z</time>
      </trkpt>
      <trkpt lat="44.79869" lon="4.40153">
        <ele>1083</ele>
        <time>2014-11-13T13:44:11Z</time>
      </trkpt>
      <trkpt lat="44.79888" lon="4.40146">
        <ele>1078</ele>
        <time>2014-11-13T13:44:31Z</time>
      </trkpt>
      <trkpt lat="44.79905" lon="4.40139">
        <ele>1072</ele>
        <time>2014-11-13T13:44:46Z</time>
      </trkpt>
      <trkpt lat="44.79927" lon="4.40131">
        <ele>1072</ele>
        <time>2014-11-13T13:45:06Z</time>
      </trkpt>
      <trkpt lat="44.79949" lon="4.40121">
        <ele>1074</ele>
        <time>2014-11-13T13:45:26Z</time>
      </trkpt>
      <trkpt lat="44.7996" lon="4.40115">
        <ele>1074</ele>
        <time>2014-11-13T13:45:41Z</time>
      </trkpt>
      <trkpt lat="44.79981" lon="4.40111">
        <ele>1074</ele>
        <time>2014-11-13T13:46:01Z</time>
      </trkpt>
      <trkpt lat="44.79989" lon="4.40102">
        <ele>1073</ele>
        <time>2014-11-13T13:46:16Z</time>
      </trkpt>
      <trkpt lat="44.79991" lon="4.40082">
        <ele>1079</ele>
        <time>2014-11-13T13:46:36Z</time>
      </trkpt>
      <trkpt lat="44.79991" lon="4.40067">
        <ele>1084</ele>
        <time>2014-11-13T13:46:51Z</time>
      </trkpt>
      <trkpt lat="44.79992" lon="4.40045">
        <ele>1084</ele>
        <time>2014-11-13T13:47:11Z</time>
      </trkpt>
      <trkpt lat="44.79992" lon="4.40031">
        <ele>1088</ele>
        <time>2014-11-13T13:47:26Z</time>
      </trkpt>
      <trkpt lat="44.79994" lon="4.40007">
        <ele>1089</ele>
        <time>2014-11-13T13:47:46Z</time>
      </trkpt>
      <trkpt lat="44.80003" lon="4.40003">
        <ele>1089</ele>
        <time>2014-11-13T13:48:01Z</time>
      </trkpt>
      <trkpt lat="44.80004" lon="4.40008">
        <ele>1089</ele>
        <time>2014-11-13T13:48:21Z</time>
      </trkpt>
      <trkpt lat="44.80001" lon="4.4001">
        <ele>1089</ele>
        <time>2014-11-13T13:48:41Z</time>
      </trkpt>
      <trkpt lat="44.8001" lon="4.40014">
        <ele>1088</ele>
        <time>2014-11-13T13:48:56Z</time>
      </trkpt>
      <trkpt lat="44.80031" lon="4.40014">
        <ele>1090</ele>
        <time>2014-11-13T13:49:16Z</time>
      </trkpt>
      <trkpt lat="44.80043" lon="4.40017">
        <ele>1096</ele>
        <time>2014-11-13T13:49:31Z</time>
      </trkpt>
      <trkpt lat="44.80058" lon="4.40022">
        <ele>1096</ele>
        <time>2014-11-13T13:49:51Z</time>
      </trkpt>
      <trkpt lat="44.8007" lon="4.40038">
        <ele>1103</ele>
        <time>2014-11-13T13:50:06Z</time>
      </trkpt>
      <trkpt lat="44.80076" lon="4.40047">
        <ele>1103</ele>
        <time>2014-11-13T13:50:36Z</time>
      </trkpt>
      <trkpt lat="44.80086" lon="4.40054">
        <ele>1103</ele>
        <time>2014-11-13T13:50:56Z</time>
      </trkpt>
      <trkpt lat="44.80104" lon="4.40074">
        <ele>1105</ele>
        <time>2014-11-13T13:51:16Z</time>
      </trkpt>
      <trkpt lat="44.80111" lon="4.40092">
        <ele>1105</ele>
        <time>2014-11-13T13:51:31Z</time>
      </trkpt>
      <trkpt lat="44.80119" lon="4.40106">
        <ele>1101</ele>
        <time>2014-11-13T13:51:51Z</time>
      </trkpt>
      <trkpt lat="44.80122" lon="4.4013">
        <ele>1096</ele>
        <time>2014-11-13T13:52:11Z</time>
      </trkpt>
      <trkpt lat="44.80117" lon="4.40147">
        <ele>1096</ele>
        <time>2014-11-13T13:52:26Z</time>
      </trkpt>
      <trkpt lat="44.80114" lon="4.40173">
        <ele>1091</ele>
        <time>2014-11-13T13:52:46Z</time>
      </trkpt>
      <trkpt lat="44.80117" lon="4.40186">
        <ele>1087</ele>
        <time>2014-11-13T13:53:01Z</time>
      </trkpt>
      <trkpt lat="44.80114" lon="4.40208">
        <ele>1087</ele>
        <time>2014-11-13T13:53:21Z</time>
      </trkpt>
      <trkpt lat="44.80106" lon="4.40223">
        <ele>1084</ele>
        <time>2014-11-13T13:53:36Z</time>
      </trkpt>
      <trkpt lat="44.80104" lon="4.40241">
        <ele>1080</ele>
        <time>2014-11-13T13:53:56Z</time>
      </trkpt>
      <trkpt lat="44.80104" lon="4.40256">
        <ele>1080</ele>
        <time>2014-11-13T13:54:11Z</time>
      </trkpt>
      <trkpt lat="44.80108" lon="4.40275">
        <ele>1077</ele>
        <time>2014-11-13T13:54:31Z</time>
      </trkpt>
      <trkpt lat="44.80109" lon="4.40295">
        <ele>1074</ele>
        <time>2014-11-13T13:54:46Z</time>
      </trkpt>
      <trkpt lat="44.80115" lon="4.40313">
        <ele>1074</ele>
        <time>2014-11-13T13:55:06Z</time>
      </trkpt>
      <trkpt lat="44.80119" lon="4.40334">
        <ele>1071</ele>
        <time>2014-11-13T13:55:26Z</time>
      </trkpt>
      <trkpt lat="44.80118" lon="4.40351">
        <ele>1066</ele>
        <time>2014-11-13T13:55:41Z</time>
      </trkpt>
      <trkpt lat="44.80116" lon="4.40369">
        <ele>1066</ele>
        <time>2014-11-13T13:56:01Z</time>
      </trkpt>
      <trkpt lat="44.80109" lon="4.40376">
        <ele>1062</ele>
        <time>2014-11-13T13:56:16Z</time>
      </trkpt>
      <trkpt lat="44.80109" lon="4.40391">
        <ele>1062</ele>
        <time>2014-11-13T13:56:36Z</time>
      </trkpt>
      <trkpt lat="44.8011" lon="4.40408">
        <ele>1055</ele>
        <time>2014-11-13T13:56:51Z</time>
      </trkpt>
      <trkpt lat="44.80106" lon="4.40426">
        <ele>1055</ele>
        <time>2014-11-13T13:57:11Z</time>
      </trkpt>
      <trkpt lat="44.80099" lon="4.40438">
        <ele>1049</ele>
        <time>2014-11-13T13:57:26Z</time>
      </trkpt>
      <trkpt lat="44.80099" lon="4.40453">
        <ele>1049</ele>
        <time>2014-11-13T13:57:46Z</time>
      </trkpt>
      <trkpt lat="44.80105" lon="4.40455">
        <ele>1049</ele>
        <time>2014-11-13T13:58:01Z</time>
      </trkpt>
      <trkpt lat="44.80115" lon="4.40454">
        <ele>1049</ele>
        <time>2014-11-13T13:58:21Z</time>
      </trkpt>
      <trkpt lat="44.80127" lon="4.40449">
        <ele>1045</ele>
        <time>2014-11-13T13:58:41Z</time>
      </trkpt>
      <trkpt lat="44.80142" lon="4.40448">
        <ele>1045</ele>
        <time>2014-11-13T13:58:56Z</time>
      </trkpt>
      <trkpt lat="44.80159" lon="4.40439">
        <ele>1038</ele>
        <time>2014-11-13T13:59:16Z</time>
      </trkpt>
      <trkpt lat="44.80165" lon="4.40434">
        <ele>1038</ele>
        <time>2014-11-13T13:59:31Z</time>
      </trkpt>
      <trkpt lat="44.80176" lon="4.40426">
        <ele>1044</ele>
        <time>2014-11-13T13:59:51Z</time>
      </trkpt>
      <trkpt lat="44.80185" lon="4.4042">
        <ele>1034</ele>
        <time>2014-11-13T14:00:06Z</time>
      </trkpt>
      <trkpt lat="44.80196" lon="4.40417">
        <ele>1034</ele>
        <time>2014-11-13T14:00:26Z</time>
      </trkpt>
      <trkpt lat="44.80202" lon="4.40419">
        <ele>1034</ele>
        <time>2014-11-13T14:00:41Z</time>
      </trkpt>
      <trkpt lat="44.80214" lon="4.40417">
        <ele>1023</ele>
        <time>2014-11-13T14:01:01Z</time>
      </trkpt>
      <trkpt lat="44.80219" lon="4.40415">
        <ele>1023</ele>
        <time>2014-11-13T14:01:16Z</time>
      </trkpt>
      <trkpt lat="44.80234" lon="4.40419">
        <ele>1023</ele>
        <time>2014-11-13T14:01:36Z</time>
      </trkpt>
      <trkpt lat="44.80247" lon="4.40422">
        <ele>1014</ele>
        <time>2014-11-13T14:01:56Z</time>
      </trkpt>
      <trkpt lat="44.80253" lon="4.40428">
        <ele>1014</ele>
        <time>2014-11-13T14:02:11Z</time>
      </trkpt>
      <trkpt lat="44.80267" lon="4.40438">
        <ele>1001</ele>
        <time>2014-11-13T14:02:31Z</time>
      </trkpt>
      <trkpt lat="44.80267" lon="4.40446">
        <ele>1001</ele>
        <time>2014-11-13T14:02:46Z</time>
      </trkpt>
      <trkpt lat="44.80268" lon="4.40444">
        <ele>1001</ele>
        <time>2014-11-13T14:03:06Z</time>
      </trkpt>
      <trkpt lat="44.80271" lon="4.40455">
        <ele>1001</ele>
        <time>2014-11-13T14:03:31Z</time>
      </trkpt>
      <trkpt lat="44.80272" lon="4.40458">
        <ele>1001</ele>
        <time>2014-11-13T14:03:51Z</time>
      </trkpt>
      <trkpt lat="44.80279" lon="4.40457">
        <ele>1001</ele>
        <time>2014-11-13T14:04:11Z</time>
      </trkpt>
      <trkpt lat="44.80279" lon="4.40459">
        <ele>999</ele>
        <time>2014-11-13T14:04:36Z</time>
      </trkpt>
      <trkpt lat="44.80276" lon="4.4047">
        <ele>999</ele>
        <time>2014-11-13T14:04:51Z</time>
      </trkpt>
      <trkpt lat="44.80283" lon="4.40494">
        <ele>994</ele>
        <time>2014-11-13T14:05:11Z</time>
      </trkpt>
      <trkpt lat="44.80293" lon="4.40506">
        <ele>986</ele>
        <time>2014-11-13T14:05:31Z</time>
      </trkpt>
      <trkpt lat="44.80302" lon="4.40528">
        <ele>981</ele>
        <time>2014-11-13T14:05:46Z</time>
      </trkpt>
      <trkpt lat="44.80302" lon="4.40547">
        <ele>978</ele>
        <time>2014-11-13T14:06:06Z</time>
      </trkpt>
      <trkpt lat="44.80302" lon="4.40556">
        <ele>978</ele>
        <time>2014-11-13T14:06:21Z</time>
      </trkpt>
      <trkpt lat="44.8031" lon="4.40556">
        <ele>978</ele>
        <time>2014-11-13T14:06:41Z</time>
      </trkpt>
      <trkpt lat="44.8031" lon="4.40552">
        <ele>978</ele>
        <time>2014-11-13T14:06:56Z</time>
      </trkpt>
      <trkpt lat="44.80304" lon="4.40555">
        <ele>978</ele>
        <time>2014-11-13T14:07:16Z</time>
      </trkpt>
      <trkpt lat="44.80311" lon="4.40568">
        <ele>978</ele>
        <time>2014-11-13T14:07:31Z</time>
      </trkpt>
      <trkpt lat="44.80326" lon="4.40585">
        <ele>962</ele>
        <time>2014-11-13T14:07:51Z</time>
      </trkpt>
      <trkpt lat="44.80334" lon="4.40597">
        <ele>956</ele>
        <time>2014-11-13T14:08:06Z</time>
      </trkpt>
      <trkpt lat="44.80344" lon="4.40614">
        <ele>956</ele>
        <time>2014-11-13T14:08:26Z</time>
      </trkpt>
      <trkpt lat="44.80349" lon="4.40634">
        <ele>940</ele>
        <time>2014-11-13T14:08:46Z</time>
      </trkpt>
      <trkpt lat="44.8035" lon="4.40642">
        <ele>940</ele>
        <time>2014-11-13T14:09:01Z</time>
      </trkpt>
      <trkpt lat="44.80361" lon="4.4066">
        <ele>934</ele>
        <time>2014-11-13T14:09:21Z</time>
      </trkpt>
      <trkpt lat="44.80367" lon="4.40665">
        <ele>934</ele>
        <time>2014-11-13T14:09:36Z</time>
      </trkpt>
      <trkpt lat="44.80372" lon="4.4068">
        <ele>934</ele>
        <time>2014-11-13T14:09:56Z</time>
      </trkpt>
      <trkpt lat="44.8037" lon="4.4068">
        <ele>934</ele>
        <time>2014-11-13T14:10:11Z</time>
      </trkpt>
      <trkpt lat="44.80364" lon="4.40684">
        <ele>927</ele>
        <time>2014-11-13T14:10:36Z</time>
      </trkpt>
      <trkpt lat="44.80363" lon="4.40689">
        <ele>927</ele>
        <time>2014-11-13T14:10:51Z</time>
      </trkpt>
      <trkpt lat="44.80362" lon="4.40683">
        <ele>927</ele>
        <time>2014-11-13T14:11:11Z</time>
      </trkpt>
      <trkpt lat="44.80363" lon="4.40679">
        <ele>934</ele>
        <time>2014-11-13T14:11:46Z</time>
      </trkpt>
      <trkpt lat="44.80361" lon="4.40684">
        <ele>927</ele>
        <time>2014-11-13T14:12:11Z</time>
      </trkpt>
      <trkpt lat="44.80354" lon="4.40684">
        <ele>927</ele>
        <time>2014-11-13T14:12:26Z</time>
      </trkpt>
      <trkpt lat="44.80356" lon="4.40684">
        <ele>927</ele>
        <time>2014-11-13T14:12:46Z</time>
      </trkpt>
      <trkpt lat="44.80364" lon="4.40684">
        <ele>927</ele>
        <time>2014-11-13T14:13:01Z</time>
      </trkpt>
      <trkpt lat="44.80361" lon="4.40697">
        <ele>927</ele>
        <time>2014-11-13T14:13:21Z</time>
      </trkpt>
      <trkpt lat="44.80364" lon="4.40693">
        <ele>927</ele>
        <time>2014-11-13T14:13:36Z</time>
      </trkpt>
      <trkpt lat="44.80361" lon="4.40684">
        <ele>927</ele>
        <time>2014-11-13T14:13:56Z</time>
      </trkpt>
      <trkpt lat="44.80364" lon="4.40684">
        <ele>927</ele>
        <time>2014-11-13T14:14:11Z</time>
      </trkpt>
      <trkpt lat="44.80385" lon="4.40693">
        <ele>915</ele>
        <time>2014-11-13T14:14:31Z</time>
      </trkpt>
      <trkpt lat="44.80389" lon="4.407">
        <ele>915</ele>
        <time>2014-11-13T14:14:46Z</time>
      </trkpt>
      <trkpt lat="44.80394" lon="4.40707">
        <ele>915</ele>
        <time>2014-11-13T14:15:06Z</time>
      </trkpt>
      <trkpt lat="44.80409" lon="4.40701">
        <ele>907</ele>
        <time>2014-11-13T14:15:26Z</time>
      </trkpt>
      <trkpt lat="44.80419" lon="4.40691">
        <ele>907</ele>
        <time>2014-11-13T14:15:41Z</time>
      </trkpt>
      <trkpt lat="44.80433" lon="4.40674">
        <ele>901</ele>
        <time>2014-11-13T14:16:01Z</time>
      </trkpt>
      <trkpt lat="44.80445" lon="4.40658">
        <ele>901</ele>
        <time>2014-11-13T14:16:16Z</time>
      </trkpt>
      <trkpt lat="44.80455" lon="4.40641">
        <ele>904</ele>
        <time>2014-11-13T14:16:36Z</time>
      </trkpt>
      <trkpt lat="44.8046" lon="4.40634">
        <ele>895</ele>
        <time>2014-11-13T14:16:56Z</time>
      </trkpt>
      <trkpt lat="44.80461" lon="4.40627">
        <ele>895</ele>
        <time>2014-11-13T14:17:21Z</time>
      </trkpt>
      <trkpt lat="44.80467" lon="4.40611">
        <ele>895</ele>
        <time>2014-11-13T14:17:36Z</time>
      </trkpt>
      <trkpt lat="44.80473" lon="4.40592">
        <ele>896</ele>
        <time>2014-11-13T14:17:56Z</time>
      </trkpt>
      <trkpt lat="44.8048" lon="4.40572">
        <ele>896</ele>
        <time>2014-11-13T14:18:11Z</time>
      </trkpt>
      <trkpt lat="44.80496" lon="4.4055">
        <ele>886</ele>
        <time>2014-11-13T14:18:31Z</time>
      </trkpt>
      <trkpt lat="44.80512" lon="4.40552">
        <ele>886</ele>
        <time>2014-11-13T14:18:51Z</time>
      </trkpt>
      <trkpt lat="44.80526" lon="4.40555">
        <ele>883</ele>
        <time>2014-11-13T14:19:06Z</time>
      </trkpt>
      <trkpt lat="44.80538" lon="4.40561">
        <ele>883</ele>
        <time>2014-11-13T14:19:26Z</time>
      </trkpt>
      <trkpt lat="44.80547" lon="4.40564">
        <ele>881</ele>
        <time>2014-11-13T14:19:41Z</time>
      </trkpt>
      <trkpt lat="44.80569" lon="4.40561">
        <ele>881</ele>
        <time>2014-11-13T14:20:01Z</time>
      </trkpt>
      <trkpt lat="44.80583" lon="4.40558">
        <ele>876</ele>
        <time>2014-11-13T14:20:16Z</time>
      </trkpt>
      <trkpt lat="44.806" lon="4.40553">
        <ele>870</ele>
        <time>2014-11-13T14:20:36Z</time>
      </trkpt>
      <trkpt lat="44.80618" lon="4.40561">
        <ele>870</ele>
        <time>2014-11-13T14:20:51Z</time>
      </trkpt>
      <trkpt lat="44.80637" lon="4.40579">
        <ele>859</ele>
        <time>2014-11-13T14:21:11Z</time>
      </trkpt>
      <trkpt lat="44.80656" lon="4.40592">
        <ele>860</ele>
        <time>2014-11-13T14:21:31Z</time>
      </trkpt>
      <trkpt lat="44.80667" lon="4.406">
        <ele>851</ele>
        <time>2014-11-13T14:21:46Z</time>
      </trkpt>
      <trkpt lat="44.80685" lon="4.40605">
        <ele>853</ele>
        <time>2014-11-13T14:22:06Z</time>
      </trkpt>
      <trkpt lat="44.807" lon="4.4061">
        <ele>853</ele>
        <time>2014-11-13T14:22:21Z</time>
      </trkpt>
      <trkpt lat="44.80721" lon="4.40619">
        <ele>850</ele>
        <time>2014-11-13T14:22:41Z</time>
      </trkpt>
      <trkpt lat="44.80738" lon="4.40612">
        <ele>846</ele>
        <time>2014-11-13T14:22:56Z</time>
      </trkpt>
      <trkpt lat="44.80753" lon="4.40611">
        <ele>846</ele>
        <time>2014-11-13T14:23:16Z</time>
      </trkpt>
      <trkpt lat="44.8077" lon="4.40611">
        <ele>838</ele>
        <time>2014-11-13T14:23:31Z</time>
      </trkpt>
      <trkpt lat="44.8079" lon="4.40607">
        <ele>838</ele>
        <time>2014-11-13T14:23:51Z</time>
      </trkpt>
      <trkpt lat="44.80807" lon="4.40599">
        <ele>831</ele>
        <time>2014-11-13T14:24:06Z</time>
      </trkpt>
      <trkpt lat="44.80833" lon="4.40597">
        <ele>823</ele>
        <time>2014-11-13T14:24:26Z</time>
      </trkpt>
      <trkpt lat="44.80853" lon="4.4059">
        <ele>820</ele>
        <time>2014-11-13T14:24:46Z</time>
      </trkpt>
      <trkpt lat="44.80865" lon="4.40583">
        <ele>820</ele>
        <time>2014-11-13T14:25:01Z</time>
      </trkpt>
      <trkpt lat="44.80884" lon="4.40569">
        <ele>817</ele>
        <time>2014-11-13T14:25:21Z</time>
      </trkpt>
      <trkpt lat="44.80894" lon="4.4057">
        <ele>812</ele>
        <time>2014-11-13T14:25:36Z</time>
      </trkpt>
      <trkpt lat="44.80892" lon="4.4057">
        <ele>812</ele>
        <time>2014-11-13T14:25:56Z</time>
      </trkpt>
      <trkpt lat="44.80894" lon="4.40578">
        <ele>812</ele>
        <time>2014-11-13T14:26:11Z</time>
      </trkpt>
      <trkpt lat="44.80894" lon="4.40572">
        <ele>812</ele>
        <time>2014-11-13T14:26:31Z</time>
      </trkpt>
      <trkpt lat="44.80896" lon="4.40583">
        <ele>812</ele>
        <time>2014-11-13T14:27:16Z</time>
      </trkpt>
      <trkpt lat="44.80891" lon="4.40581">
        <ele>812</ele>
        <time>2014-11-13T14:27:31Z</time>
      </trkpt>
      <trkpt lat="44.80892" lon="4.4058">
        <ele>812</ele>
        <time>2014-11-13T14:27:51Z</time>
      </trkpt>
      <trkpt lat="44.80891" lon="4.40582">
        <ele>812</ele>
        <time>2014-11-13T14:28:11Z</time>
      </trkpt>
      <trkpt lat="44.80894" lon="4.40574">
        <ele>812</ele>
        <time>2014-11-13T14:28:26Z</time>
      </trkpt>
      <trkpt lat="44.80899" lon="4.40569">
        <ele>817</ele>
        <time>2014-11-13T14:28:46Z</time>
      </trkpt>
      <trkpt lat="44.80889" lon="4.40573">
        <ele>812</ele>
        <time>2014-11-13T14:29:01Z</time>
      </trkpt>
      <trkpt lat="44.80893" lon="4.40572">
        <ele>812</ele>
        <time>2014-11-13T14:29:21Z</time>
      </trkpt>
      <trkpt lat="44.80893" lon="4.40576">
        <ele>812</ele>
        <time>2014-11-13T14:29:56Z</time>
      </trkpt>
      <trkpt lat="44.80901" lon="4.40588">
        <ele>812</ele>
        <time>2014-11-13T14:30:16Z</time>
      </trkpt>
      <trkpt lat="44.80907" lon="4.40591">
        <ele>805</ele>
        <time>2014-11-13T14:30:31Z</time>
      </trkpt>
      <trkpt lat="44.80907" lon="4.40582">
        <ele>805</ele>
        <time>2014-11-13T14:30:51Z</time>
      </trkpt>
      <trkpt lat="44.80905" lon="4.40573">
        <ele>805</ele>
        <time>2014-11-13T14:31:06Z</time>
      </trkpt>
      <trkpt lat="44.80902" lon="4.40576">
        <ele>812</ele>
        <time>2014-11-13T14:31:26Z</time>
      </trkpt>
      <trkpt lat="44.80898" lon="4.40576">
        <ele>812</ele>
        <time>2014-11-13T14:31:56Z</time>
      </trkpt>
      <trkpt lat="44.80895" lon="4.40577">
        <ele>812</ele>
        <time>2014-11-13T14:32:26Z</time>
      </trkpt>
      <trkpt lat="44.80894" lon="4.40578">
        <ele>812</ele>
        <time>2014-11-13T14:32:46Z</time>
      </trkpt>
      <trkpt lat="44.80889" lon="4.40577">
        <ele>812</ele>
        <time>2014-11-13T14:33:21Z</time>
      </trkpt>
      <trkpt lat="44.80884" lon="4.4057">
        <ele>812</ele>
        <time>2014-11-13T14:33:41Z</time>
      </trkpt>
      <trkpt lat="44.80888" lon="4.40569">
        <ele>817</ele>
        <time>2014-11-13T14:33:56Z</time>
      </trkpt>
      <trkpt lat="44.80886" lon="4.40575">
        <ele>812</ele>
        <time>2014-11-13T14:34:21Z</time>
      </trkpt>
      <trkpt lat="44.80892" lon="4.40582">
        <ele>812</ele>
        <time>2014-11-13T14:34:36Z</time>
      </trkpt>
      <trkpt lat="44.80895" lon="4.40582">
        <ele>812</ele>
        <time>2014-11-13T14:34:56Z</time>
      </trkpt>
      <trkpt lat="44.8089" lon="4.40575">
        <ele>812</ele>
        <time>2014-11-13T14:35:11Z</time>
      </trkpt>
      <trkpt lat="44.8089" lon="4.40579">
        <ele>812</ele>
        <time>2014-11-13T14:35:41Z</time>
      </trkpt>
      <trkpt lat="44.80881" lon="4.40599">
        <ele>809</ele>
        <time>2014-11-13T14:36:01Z</time>
      </trkpt>
      <trkpt lat="44.80871" lon="4.40623">
        <ele>815</ele>
        <time>2014-11-13T14:36:16Z</time>
      </trkpt>
      <trkpt lat="44.80856" lon="4.40641">
        <ele>811</ele>
        <time>2014-11-13T14:36:36Z</time>
      </trkpt>
      <trkpt lat="44.80849" lon="4.40649">
        <ele>811</ele>
        <time>2014-11-13T14:36:51Z</time>
      </trkpt>
      <trkpt lat="44.80858" lon="4.40642">
        <ele>811</ele>
        <time>2014-11-13T14:37:11Z</time>
      </trkpt>
      <trkpt lat="44.80873" lon="4.40631">
        <ele>811</ele>
        <time>2014-11-13T14:37:26Z</time>
      </trkpt>
      <trkpt lat="44.8089" lon="4.40614">
        <ele>809</ele>
        <time>2014-11-13T14:37:46Z</time>
      </trkpt>
      <trkpt lat="44.80903" lon="4.406">
        <ele>798</ele>
        <time>2014-11-13T14:38:01Z</time>
      </trkpt>
      <trkpt lat="44.80922" lon="4.4058">
        <ele>805</ele>
        <time>2014-11-13T14:38:21Z</time>
      </trkpt>
      <trkpt lat="44.80928" lon="4.40565">
        <ele>811</ele>
        <time>2014-11-13T14:38:36Z</time>
      </trkpt>
      <trkpt lat="44.80936" lon="4.40562">
        <ele>802</ele>
        <time>2014-11-13T14:38:56Z</time>
      </trkpt>
      <trkpt lat="44.80949" lon="4.40554">
        <ele>802</ele>
        <time>2014-11-13T14:39:16Z</time>
      </trkpt>
      <trkpt lat="44.80949" lon="4.40553">
        <ele>802</ele>
        <time>2014-11-13T14:39:31Z</time>
      </trkpt>
      <trkpt lat="44.80955" lon="4.40571">
        <ele>797</ele>
        <time>2014-11-13T14:39:51Z</time>
      </trkpt>
      <trkpt lat="44.80971" lon="4.40567">
        <ele>793</ele>
        <time>2014-11-13T14:40:06Z</time>
      </trkpt>
      <trkpt lat="44.80976" lon="4.40578">
        <ele>789</ele>
        <time>2014-11-13T14:40:26Z</time>
      </trkpt>
      <trkpt lat="44.80992" lon="4.40587">
        <ele>785</ele>
        <time>2014-11-13T14:40:41Z</time>
      </trkpt>
      <trkpt lat="44.81013" lon="4.40589">
        <ele>785</ele>
        <time>2014-11-13T14:41:01Z</time>
      </trkpt>
      <trkpt lat="44.81022" lon="4.40587">
        <ele>783</ele>
        <time>2014-11-13T14:41:16Z</time>
      </trkpt>
      <trkpt lat="44.81046" lon="4.40598">
        <ele>772</ele>
        <time>2014-11-13T14:41:36Z</time>
      </trkpt>
      <trkpt lat="44.81054" lon="4.40598">
        <ele>772</ele>
        <time>2014-11-13T14:41:51Z</time>
      </trkpt>
      <trkpt lat="44.81064" lon="4.40595">
        <ele>774</ele>
        <time>2014-11-13T14:42:11Z</time>
      </trkpt>
      <trkpt lat="44.81077" lon="4.40585">
        <ele>762</ele>
        <time>2014-11-13T14:42:31Z</time>
      </trkpt>
      <trkpt lat="44.8109" lon="4.40578">
        <ele>762</ele>
        <time>2014-11-13T14:42:46Z</time>
      </trkpt>
      <trkpt lat="44.81102" lon="4.40561">
        <ele>760</ele>
        <time>2014-11-13T14:43:06Z</time>
      </trkpt>
      <trkpt lat="44.8111" lon="4.40557">
        <ele>760</ele>
        <time>2014-11-13T14:43:21Z</time>
      </trkpt>
      <trkpt lat="44.81124" lon="4.40555">
        <ele>760</ele>
        <time>2014-11-13T14:43:41Z</time>
      </trkpt>
      <trkpt lat="44.81134" lon="4.40548">
        <ele>759</ele>
        <time>2014-11-13T14:43:56Z</time>
      </trkpt>
      <trkpt lat="44.81141" lon="4.40537">
        <ele>759</ele>
        <time>2014-11-13T14:44:16Z</time>
      </trkpt>
      <trkpt lat="44.81138" lon="4.4054">
        <ele>759</ele>
        <time>2014-11-13T14:44:31Z</time>
      </trkpt>
      <trkpt lat="44.8115" lon="4.40537">
        <ele>759</ele>
        <time>2014-11-13T14:44:51Z</time>
      </trkpt>
      <trkpt lat="44.81167" lon="4.4054">
        <ele>757</ele>
        <time>2014-11-13T14:45:06Z</time>
      </trkpt>
      <trkpt lat="44.81186" lon="4.40534">
        <ele>751</ele>
        <time>2014-11-13T14:45:26Z</time>
      </trkpt>
      <trkpt lat="44.81202" lon="4.40547">
        <ele>747</ele>
        <time>2014-11-13T14:45:46Z</time>
      </trkpt>
      <trkpt lat="44.81216" lon="4.40546">
        <ele>738</ele>
        <time>2014-11-13T14:46:01Z</time>
      </trkpt>
      <trkpt lat="44.81224" lon="4.40549">
        <ele>738</ele>
        <time>2014-11-13T14:46:21Z</time>
      </trkpt>
      <trkpt lat="44.81222" lon="4.40549">
        <ele>738</ele>
        <time>2014-11-13T14:46:36Z</time>
      </trkpt>
      <trkpt lat="44.81219" lon="4.40547">
        <ele>738</ele>
        <time>2014-11-13T14:46:56Z</time>
      </trkpt>
      <trkpt lat="44.81222" lon="4.40543">
        <ele>738</ele>
        <time>2014-11-13T14:47:11Z</time>
      </trkpt>
      <trkpt lat="44.81236" lon="4.40546">
        <ele>738</ele>
        <time>2014-11-13T14:47:31Z</time>
      </trkpt>
      <trkpt lat="44.81239" lon="4.40553">
        <ele>734</ele>
        <time>2014-11-13T14:47:46Z</time>
      </trkpt>
      <trkpt lat="44.81259" lon="4.40557">
        <ele>734</ele>
        <time>2014-11-13T14:48:06Z</time>
      </trkpt>
      <trkpt lat="44.81269" lon="4.40555">
        <ele>733</ele>
        <time>2014-11-13T14:48:21Z</time>
      </trkpt>
      <trkpt lat="44.81275" lon="4.40551">
        <ele>733</ele>
        <time>2014-11-13T14:48:41Z</time>
      </trkpt>
      <trkpt lat="44.81285" lon="4.40543">
        <ele>733</ele>
        <time>2014-11-13T14:49:01Z</time>
      </trkpt>
      <trkpt lat="44.81299" lon="4.4054">
        <ele>732</ele>
        <time>2014-11-13T14:49:16Z</time>
      </trkpt>
      <trkpt lat="44.8132" lon="4.40534">
        <ele>727</ele>
        <time>2014-11-13T14:49:36Z</time>
      </trkpt>
      <trkpt lat="44.81333" lon="4.40525">
        <ele>727</ele>
        <time>2014-11-13T14:49:51Z</time>
      </trkpt>
      <trkpt lat="44.81341" lon="4.40527">
        <ele>727</ele>
        <time>2014-11-13T14:50:11Z</time>
      </trkpt>
      <trkpt lat="44.81344" lon="4.4053">
        <ele>727</ele>
        <time>2014-11-13T14:50:26Z</time>
      </trkpt>
      <trkpt lat="44.81352" lon="4.4054">
        <ele>723</ele>
        <time>2014-11-13T14:50:46Z</time>
      </trkpt>
      <trkpt lat="44.81363" lon="4.40553">
        <ele>722</ele>
        <time>2014-11-13T14:51:06Z</time>
      </trkpt>
      <trkpt lat="44.81377" lon="4.40561">
        <ele>718</ele>
        <time>2014-11-13T14:51:26Z</time>
      </trkpt>
      <trkpt lat="44.81398" lon="4.4056">
        <ele>718</ele>
        <time>2014-11-13T14:51:41Z</time>
      </trkpt>
      <trkpt lat="44.81419" lon="4.40577">
        <ele>711</ele>
        <time>2014-11-13T14:52:01Z</time>
      </trkpt>
      <trkpt lat="44.81428" lon="4.4059">
        <ele>711</ele>
        <time>2014-11-13T14:52:21Z</time>
      </trkpt>
      <trkpt lat="44.81442" lon="4.406">
        <ele>707</ele>
        <time>2014-11-13T14:52:36Z</time>
      </trkpt>
      <trkpt lat="44.81449" lon="4.40601">
        <ele>707</ele>
        <time>2014-11-13T14:52:56Z</time>
      </trkpt>
      <trkpt lat="44.8145" lon="4.40608">
        <ele>707</ele>
        <time>2014-11-13T14:53:11Z</time>
      </trkpt>
      <trkpt lat="44.81446" lon="4.4061">
        <ele>707</ele>
        <time>2014-11-13T14:53:31Z</time>
      </trkpt>
      <trkpt lat="44.81448" lon="4.40603">
        <ele>707</ele>
        <time>2014-11-13T14:54:11Z</time>
      </trkpt>
      <trkpt lat="44.81444" lon="4.40601">
        <ele>707</ele>
        <time>2014-11-13T14:54:31Z</time>
      </trkpt>
      <trkpt lat="44.8144" lon="4.40598">
        <ele>707</ele>
        <time>2014-11-13T14:54:46Z</time>
      </trkpt>
      <trkpt lat="44.81443" lon="4.40603">
        <ele>707</ele>
        <time>2014-11-13T14:55:06Z</time>
      </trkpt>
      <trkpt lat="44.81446" lon="4.40593">
        <ele>706</ele>
        <time>2014-11-13T14:55:21Z</time>
      </trkpt>
      <trkpt lat="44.81443" lon="4.40566">
        <ele>706</ele>
        <time>2014-11-13T14:55:41Z</time>
      </trkpt>
      <trkpt lat="44.81435" lon="4.40536">
        <ele>705</ele>
        <time>2014-11-13T14:56:01Z</time>
      </trkpt>
      <trkpt lat="44.81429" lon="4.40511">
        <ele>711</ele>
        <time>2014-11-13T14:56:16Z</time>
      </trkpt>
      <trkpt lat="44.8143" lon="4.4048">
        <ele>712</ele>
        <time>2014-11-13T14:56:36Z</time>
      </trkpt>
      <trkpt lat="44.81432" lon="4.40457">
        <ele>706</ele>
        <time>2014-11-13T14:56:51Z</time>
      </trkpt>
      <trkpt lat="44.81435" lon="4.40434">
        <ele>706</ele>
        <time>2014-11-13T14:57:11Z</time>
      </trkpt>
      <trkpt lat="44.81436" lon="4.40409">
        <ele>709</ele>
        <time>2014-11-13T14:57:26Z</time>
      </trkpt>
      <trkpt lat="44.81437" lon="4.40381">
        <ele>710</ele>
        <time>2014-11-13T14:57:46Z</time>
      </trkpt>
      <trkpt lat="44.8144" lon="4.40359">
        <ele>709</ele>
        <time>2014-11-13T14:58:01Z</time>
      </trkpt>
      <trkpt lat="44.8144" lon="4.40339">
        <ele>708</ele>
        <time>2014-11-13T14:58:21Z</time>
      </trkpt>
      <trkpt lat="44.8144" lon="4.40326">
        <ele>708</ele>
        <time>2014-11-13T14:58:36Z</time>
      </trkpt>
      <trkpt lat="44.81442" lon="4.40291">
        <ele>710</ele>
        <time>2014-11-13T14:58:56Z</time>
      </trkpt>
      <trkpt lat="44.81445" lon="4.40257">
        <ele>713</ele>
        <time>2014-11-13T14:59:16Z</time>
      </trkpt>
      <trkpt lat="44.8145" lon="4.40233">
        <ele>714</ele>
        <time>2014-11-13T14:59:31Z</time>
      </trkpt>
      <trkpt lat="44.81452" lon="4.40211">
        <ele>714</ele>
        <time>2014-11-13T14:59:51Z</time>
      </trkpt>
      <trkpt lat="44.81453" lon="4.40189">
        <ele>713</ele>
        <time>2014-11-13T15:00:06Z</time>
      </trkpt>
      <trkpt lat="44.81457" lon="4.40154">
        <ele>713</ele>
        <time>2014-11-13T15:00:26Z</time>
        <extensions>
          <visugpx:TrkExtension xmlns:visugpx="https://www.visugpx.com/editgpx/">
            <visugpx:node>1</visugpx:node>
            </visugpx:TrkExtension>
        </extensions>
      </trkpt>
      <trkpt lat="44.81485" lon="4.40128">
        <ele>712.2</ele>
      </trkpt>
      <trkpt lat="44.81494" lon="4.40127">
        <ele>713.9</ele>
      </trkpt>
      <trkpt lat="44.81516" lon="4.40116">
        <ele>719</ele>
      </trkpt>
      <trkpt lat="44.81526" lon="4.40107">
        <ele>721.8</ele>
      </trkpt>
      <trkpt lat="44.81529" lon="4.40091">
        <ele>724.1</ele>
      </trkpt>
      <trkpt lat="44.81536" lon="4.4011">
        <ele>726.8</ele>
      </trkpt>
      <trkpt lat="44.81527" lon="4.40056">
        <ele>728.7</ele>
      </trkpt>
      <trkpt lat="44.81518" lon="4.40001">
        <ele>734</ele>
      </trkpt>
      <trkpt lat="44.81512" lon="4.39939">
        <ele>736.6</ele>
      </trkpt>
      <trkpt lat="44.81519" lon="4.39931">
        <ele>739</ele>
      </trkpt>
      <trkpt lat="44.81525" lon="4.39957">
        <ele>741.4</ele>
      </trkpt>
      <trkpt lat="44.81543" lon="4.39984">
        <ele>746</ele>
      </trkpt>
      <trkpt lat="44.81575" lon="4.4001">
        <ele>754.6</ele>
      </trkpt>
      <trkpt lat="44.81594" lon="4.40028">
        <ele>760.4</ele>
      </trkpt>
      <trkpt lat="44.81609" lon="4.40065">
        <ele>765.2</ele>
      </trkpt>
      <trkpt lat="44.81642" lon="4.40069">
        <ele>771.4</ele>
      </trkpt>
      <trkpt lat="44.81658" lon="4.40068">
        <ele>775.5</ele>
      </trkpt>
      <trkpt lat="44.81652" lon="4.40041">
        <ele>778.6</ele>
      </trkpt>
      <trkpt lat="44.81635" lon="4.40038">
        <ele>777.5</ele>
      </trkpt>
      <trkpt lat="44.81648" lon="4.40026">
        <ele>781.8</ele>
      </trkpt>
      <trkpt lat="44.81651" lon="4.40018">
        <ele>783.7</ele>
      </trkpt>
      <trkpt lat="44.8165" lon="4.40004">
        <ele>787.2</ele>
      </trkpt>
      <trkpt lat="44.81672" lon="4.39983">
        <ele>797</ele>
      </trkpt>
      <trkpt lat="44.81727" lon="4.39978">
        <ele>805.2</ele>
      </trkpt>
      <trkpt lat="44.81774" lon="4.39974">
        <ele>815.1</ele>
      </trkpt>
      <trkpt lat="44.81798" lon="4.39996">
        <ele>822.7</ele>
      </trkpt>
      <trkpt lat="44.81857" lon="4.39926">
        <ele>838.5</ele>
      </trkpt>
      <trkpt lat="44.81871" lon="4.39881">
        <ele>840.9</ele>
      </trkpt>
      <trkpt lat="44.81879" lon="4.39822">
        <ele>848.7</ele>
      </trkpt>
      <trkpt lat="44.81882" lon="4.398">
        <ele>852.5</ele>
      </trkpt>
      <trkpt lat="44.81908" lon="4.39762">
        <ele>856.8</ele>
      </trkpt>
      <trkpt lat="44.81921" lon="4.39742">
        <ele>858.9</ele>
      </trkpt>
      <trkpt lat="44.81915" lon="4.39737">
        <ele>862.3</ele>
      </trkpt>
      <trkpt lat="44.81934" lon="4.39689">
        <ele>869.1</ele>
      </trkpt>
      <trkpt lat="44.81937" lon="4.39673">
        <ele>871.7</ele>
      </trkpt>
      <trkpt lat="44.81919" lon="4.39686">
        <ele>875.5</ele>
      </trkpt>
      <trkpt lat="44.81905" lon="4.39714">
        <ele>873</ele>
      </trkpt>
      <trkpt lat="44.81891" lon="4.39726">
        <ele>874.8</ele>
      </trkpt>
      <trkpt lat="44.8189" lon="4.3971">
        <ele>880.1</ele>
      </trkpt>
      <trkpt lat="44.81916" lon="4.39647">
        <ele>887.2</ele>
      </trkpt>
      <trkpt lat="44.81962" lon="4.39576">
        <ele>899.5</ele>
      </trkpt>
      <trkpt lat="44.81994" lon="4.39525">
        <ele>908.3</ele>
      </trkpt>
      <trkpt lat="44.82036" lon="4.39465">
        <ele>918.7</ele>
      </trkpt>
      <trkpt lat="44.82038" lon="4.39452">
        <ele>922.8</ele>
      </trkpt>
      <trkpt lat="44.82109" lon="4.39358">
        <ele>933.7</ele>
      </trkpt>
      <trkpt lat="44.82134" lon="4.39323">
        <ele>936.5</ele>
      </trkpt>
      <trkpt lat="44.82146" lon="4.39284">
        <ele>942.3</ele>
      </trkpt>
      <trkpt lat="44.82182" lon="4.3921">
        <ele>948.1</ele>
      </trkpt>
      <trkpt lat="44.82237" lon="4.39184">
        <ele>954.1</ele>
      </trkpt>
      <trkpt lat="44.82319" lon="4.39156">
        <ele>963.3</ele>
      </trkpt>
      <trkpt lat="44.82357" lon="4.39154">
        <ele>967.8</ele>
      </trkpt>
      <trkpt lat="44.82391" lon="4.39156">
        <ele>970.2</ele>
      </trkpt>
      <trkpt lat="44.82413" lon="4.39136">
        <ele>974</ele>
      </trkpt>
      <trkpt lat="44.82458" lon="4.39145">
        <ele>979.9</ele>
        <extensions>
          <visugpx:TrkExtension xmlns:visugpx="https://www.visugpx.com/editgpx/">
            <visugpx:node>6</visugpx:node>
            </visugpx:TrkExtension>
        </extensions>
      </trkpt>
      <trkpt lat="44.82474" lon="4.39204">
        <ele>978.3</ele>
      </trkpt>
      <trkpt lat="44.82498" lon="4.39262">
        <ele>975.1</ele>
      </trkpt>
      <trkpt lat="44.82542" lon="4.39289">
        <ele>972.6</ele>
      </trkpt>
      <trkpt lat="44.82609" lon="4.39324">
        <ele>967.3</ele>
      </trkpt>
      <trkpt lat="44.82627" lon="4.39356">
        <ele>961.3</ele>
      </trkpt>
      <trkpt lat="44.82629" lon="4.39396">
        <ele>959.5</ele>
      </trkpt>
      <trkpt lat="44.82636" lon="4.39443">
        <ele>957.7</ele>
      </trkpt>
      <trkpt lat="44.82652" lon="4.39465">
        <ele>953.8</ele>
      </trkpt>
      <trkpt lat="44.82754" lon="4.39672">
        <ele>914.1</ele>
      </trkpt>
      <trkpt lat="44.82791" lon="4.39821">
        <ele>891.3</ele>
      </trkpt>
      <trkpt lat="44.82865" lon="4.39933">
        <ele>872.9</ele>
      </trkpt>
      <trkpt lat="44.82923" lon="4.40074">
        <ele>852.8</ele>
      </trkpt>
      <trkpt lat="44.82947" lon="4.4017">
        <ele>844.9</ele>
      </trkpt>
      <trkpt lat="44.82916" lon="4.40268">
        <ele>848.7</ele>
      </trkpt>
      <trkpt lat="44.82929" lon="4.40389">
        <ele>817.8</ele>
      </trkpt>
      <trkpt lat="44.82916" lon="4.40415">
        <ele>818.4</ele>
      </trkpt>
      <trkpt lat="44.82914" lon="4.40456">
        <ele>821.8</ele>
      </trkpt>
      <trkpt lat="44.8289" lon="4.4055">
        <ele>823</ele>
      </trkpt>
      <trkpt lat="44.82874" lon="4.40605">
        <ele>825.2</ele>
      </trkpt>
      <trkpt lat="44.82861" lon="4.40677">
        <ele>826.3</ele>
      </trkpt>
      <trkpt lat="44.82851" lon="4.40731">
        <ele>829.1</ele>
      </trkpt>
      <trkpt lat="44.82848" lon="4.40767">
        <ele>829.5</ele>
      </trkpt>
      <trkpt lat="44.82839" lon="4.40809">
        <ele>830.9</ele>
      </trkpt>
      <trkpt lat="44.82816" lon="4.4084">
        <ele>833.1</ele>
      </trkpt>
      <trkpt lat="44.82793" lon="4.40864">
        <ele>833.5</ele>
      </trkpt>
      <trkpt lat="44.82757" lon="4.40897">
        <ele>835.3</ele>
      </trkpt>
      <trkpt lat="44.82698" lon="4.40947">
        <ele>839</ele>
      </trkpt>
      <trkpt lat="44.82682" lon="4.40969">
        <ele>838</ele>
      </trkpt>
      <trkpt lat="44.82653" lon="4.40989">
        <ele>840.2</ele>
      </trkpt>
      <trkpt lat="44.8263" lon="4.41001">
        <ele>841.9</ele>
      </trkpt>
      <trkpt lat="44.82603" lon="4.41023">
        <ele>843</ele>
      </trkpt>
      <trkpt lat="44.8259" lon="4.41043">
        <ele>843.7</ele>
      </trkpt>
      <trkpt lat="44.8257" lon="4.41067">
        <ele>844.9</ele>
      </trkpt>
      <trkpt lat="44.82514" lon="4.41126">
        <ele>845.8</ele>
      </trkpt>
      <trkpt lat="44.82497" lon="4.4113">
        <ele>847.5</ele>
      </trkpt>
      <trkpt lat="44.8247" lon="4.41126">
        <ele>848.7</ele>
      </trkpt>
      <trkpt lat="44.82433" lon="4.4111">
        <ele>853.4</ele>
      </trkpt>
      <trkpt lat="44.82426" lon="4.41116">
        <ele>853.1</ele>
      </trkpt>
      <trkpt lat="44.82418" lon="4.41134">
        <ele>851.4</ele>
      </trkpt>
      <trkpt lat="44.824" lon="4.41172">
        <ele>853.3</ele>
      </trkpt>
      <trkpt lat="44.82391" lon="4.41232">
        <ele>854.7</ele>
      </trkpt>
      <trkpt lat="44.82382" lon="4.41277">
        <ele>855.3</ele>
      </trkpt>
      <trkpt lat="44.82369" lon="4.41298">
        <ele>856.7</ele>
      </trkpt>
      <trkpt lat="44.82355" lon="4.41326">
        <ele>857.5</ele>
      </trkpt>
      <trkpt lat="44.82336" lon="4.41354">
        <ele>858.8</ele>
      </trkpt>
      <trkpt lat="44.8231" lon="4.41379">
        <ele>860.1</ele>
      </trkpt>
      <trkpt lat="44.82291" lon="4.41392">
        <ele>861</ele>
      </trkpt>
      <trkpt lat="44.82255" lon="4.41415">
        <ele>862.9</ele>
      </trkpt>
      <trkpt lat="44.82233" lon="4.4144">
        <ele>863.9</ele>
      </trkpt>
      <trkpt lat="44.82224" lon="4.41457">
        <ele>864.5</ele>
      </trkpt>
      <trkpt lat="44.82213" lon="4.41488">
        <ele>865.4</ele>
      </trkpt>
      <trkpt lat="44.82202" lon="4.41547">
        <ele>865.8</ele>
      </trkpt>
      <trkpt lat="44.82183" lon="4.41568">
        <ele>865.7</ele>
      </trkpt>
      <trkpt lat="44.82173" lon="4.41574">
        <ele>864</ele>
      </trkpt>
      <trkpt lat="44.82154" lon="4.4157">
        <ele>858.7</ele>
      </trkpt>
      <trkpt lat="44.82138" lon="4.41565">
        <ele>853.3</ele>
      </trkpt>
      <trkpt lat="44.82117" lon="4.4155">
        <ele>845.9</ele>
      </trkpt>
      <trkpt lat="44.82103" lon="4.4158">
        <ele>836.6</ele>
      </trkpt>
      <trkpt lat="44.82097" lon="4.41619">
        <ele>831.9</ele>
      </trkpt>
      <trkpt lat="44.82088" lon="4.41648">
        <ele>826.7</ele>
      </trkpt>
      <trkpt lat="44.82081" lon="4.41661">
        <ele>822.7</ele>
      </trkpt>
      <trkpt lat="44.82069" lon="4.41721">
        <ele>818.6</ele>
      </trkpt>
      <trkpt lat="44.82052" lon="4.41773">
        <ele>812</ele>
      </trkpt>
      <trkpt lat="44.82031" lon="4.41821">
        <ele>809.5</ele>
      </trkpt>
      <trkpt lat="44.82005" lon="4.41845">
        <ele>801.8</ele>
      </trkpt>
      <trkpt lat="44.82017" lon="4.42073">
        <ele>775</ele>
      </trkpt>
      <trkpt lat="44.82021" lon="4.42174">
        <ele>758.8</ele>
      </trkpt>
      <trkpt lat="44.82009" lon="4.42211">
        <ele>748.2</ele>
      </trkpt>
      <trkpt lat="44.81995" lon="4.42256">
        <ele>737.5</ele>
      </trkpt>
      <trkpt lat="44.81962" lon="4.42227">
        <ele>728.7</ele>
      </trkpt>
      <trkpt lat="44.81955" lon="4.42301">
        <ele>715.9</ele>
      </trkpt>
      <trkpt lat="44.81943" lon="4.42318">
        <ele>707.1</ele>
      </trkpt>
      <trkpt lat="44.81974" lon="4.42349">
        <ele>700.4</ele>
      </trkpt>
      <trkpt lat="44.82014" lon="4.42348">
        <ele>701</ele>
      </trkpt>
      <trkpt lat="44.82048" lon="4.42347">
        <ele>696.7</ele>
      </trkpt>
      <trkpt lat="44.82063" lon="4.42383">
        <ele>688.6</ele>
      </trkpt>
      <trkpt lat="44.82077" lon="4.42418">
        <ele>684.6</ele>
      </trkpt>
      <trkpt lat="44.82074" lon="4.42413">
        <ele>685</ele>
      </trkpt>
      <trkpt lat="44.82092" lon="4.42443">
        <ele>684.1</ele>
      </trkpt>
      <trkpt lat="44.82116" lon="4.4248">
        <ele>683.8</ele>
      </trkpt>
      <trkpt lat="44.82131" lon="4.42503">
        <ele>683.5</ele>
      </trkpt>
      <trkpt lat="44.8213" lon="4.42517">
        <ele>680.1</ele>
      </trkpt>
      <trkpt lat="44.82138" lon="4.42544">
        <ele>676.6</ele>
      </trkpt>
      <trkpt lat="44.82139" lon="4.42561">
        <ele>673.3</ele>
      </trkpt>
      <trkpt lat="44.82138" lon="4.4257">
        <ele>671.6</ele>
      </trkpt>
      <trkpt lat="44.8213" lon="4.4257">
        <ele>668.7</ele>
      </trkpt>
      <trkpt lat="44.82122" lon="4.42554">
        <ele>668.9</ele>
      </trkpt>
      <trkpt lat="44.82109" lon="4.42542">
        <ele>667.3</ele>
      </trkpt>
      <trkpt lat="44.82095" lon="4.42534">
        <ele>664.9</ele>
      </trkpt>
      <trkpt lat="44.82117" lon="4.42586">
        <ele>660.7</ele>
      </trkpt>
      <trkpt lat="44.8212" lon="4.42618">
        <ele>656.2</ele>
      </trkpt>
      <trkpt lat="44.82113" lon="4.42658">
        <ele>648.3</ele>
      </trkpt>
      <trkpt lat="44.82105" lon="4.42675">
        <ele>644.2</ele>
      </trkpt>
      <trkpt lat="44.82105" lon="4.42705">
        <ele>642.8</ele>
      </trkpt>
      <trkpt lat="44.82089" lon="4.42736">
        <ele>634.6</ele>
      </trkpt>
      <trkpt lat="44.82085" lon="4.42739">
        <ele>633</ele>
      </trkpt>
      <trkpt lat="44.82104" lon="4.42811">
        <ele>630.5</ele>
        <extensions>
          <visugpx:TrkExtension xmlns:visugpx="https://www.visugpx.com/editgpx/">
            <visugpx:node>12</visugpx:node>
            </visugpx:TrkExtension>
        </extensions>
      </trkpt>
    </trkseg>
  </trk>
</gpx>